Radiosonde details



Informationen :

Serial : V3010292
Type : Vaisala RS41-SGP
Date of production : 24.07.2023
Frequency : 403.000MHz
Launchsite : Galeao
Nearest town : Armação dos Búzios, BR (14.3km)

Altitude (Max) : 24350m at 2026-09-05 00:44:55
Speed (Max) : 154km/h at altitude 9446m

Average speed : 78km/h
Average ascent rate : 6m/s
Average descent rate : -8m/s
Ascent rate (Max) : 12.7m/s
Descent rate (Max): -24m/s

First frame :
PU1XMG-16 at 2026-09-04 23:34:53 at altitude 319m (OG: 269m)
Last frame :
PU1XMG-16 at 2026-09-05 01:18:02 at altitude 8834m (OG: 8785m)

Flighttime : 1h43m9s
Ascent time : 1h10m2s
Descent time : 33m7s
Uptime : -
Killtimer : 7h59m

Distance (Straight line distance): 126km

Distance (Route):


Frames : 761


Measurement :

Temperature : -24.8°C
Humidity : 40.8%
Pressure : 335.7hPa


Vertical profile (SkewT) :


Elevation profile :



Receiving stations :


Receiver Frames First received Last received
PU1XMG-16 761 2026-09-04 23:34:53 2026-09-05 01:18:02

Share per receiver :



All frames :


Receiver Date Latitude Longitude Direction Speed Altitude Climb Temperature Humidity Pressure Voltage Killtimer Uptime BKT XDATA
PU1XMG-162026-09-05 01:18:02-22.72377-42.0184682°148km/h8834m-5.2m/s-24.8°C40.8%335.7hPa0V00:00:0000:00:0000:00:00
PU1XMG-162026-09-05 01:17:57-22.72413-42.0208582°148km/h8866m-5.4m/s-24.9°C40.8%334.2hPa0V00:00:0000:00:0000:00:00
PU1XMG-162026-09-05 01:17:18-22.72613-42.0364484°146km/h9071m-5.3m/s-26.5°C43.2%324.9hPa0V00:00:0000:00:0000:00:00
PU1XMG-162026-09-05 01:17:02-22.72677-42.0427185°142km/h9155m-5.2m/s-26.9°C38.5%321.2hPa0V00:00:0000:00:0000:00:00
PU1XMG-162026-09-05 01:16:50-22.72710-42.0469587°141km/h9211m-5.2m/s-26.8°C36.4%318.7hPa0V00:00:0000:00:0000:00:00
PU1XMG-162026-09-05 01:16:42-22.72730-42.0500287°141km/h9253m-5.1m/s-27.2°C37.7%316.8hPa0V07:59:0000:00:0000:00:00
PU1XMG-162026-09-05 01:16:36-22.72744-42.0522988°135km/h9283m-5.4m/s-27.4°C38.5%315.5hPa0V07:59:0000:00:0000:00:00
PU1XMG-162026-09-05 01:16:28-22.72754-42.0552790°137km/h9323m-5.2m/s-27.7°C38.2%313.8hPa0V07:59:0000:00:0000:00:00
PU1XMG-162026-09-05 01:16:22-22.72761-42.0575289°137km/h9353m-5.2m/s-27.8°C33.1%312.4hPa0V07:59:0000:00:0000:00:00
PU1XMG-162026-09-05 01:16:10-22.72768-42.0619389°135km/h9411m-4.6m/s-28.4°C34.3%309.9hPa0V07:59:0000:00:0000:00:00
PU1XMG-162026-09-05 01:16:04-22.72774-42.0641590°133km/h9438m-4.9m/s-28.6°C35.0%308.7hPa0V07:59:0000:00:0000:00:00
PU1XMG-162026-09-05 01:16:00-22.72776-42.0659991°135km/h9462m-5.0m/s-28.8°C35.1%307.7hPa0V07:59:0000:00:0000:00:00
PU1XMG-162026-09-05 01:15:52-22.72778-42.0685291°131km/h9495m-5.0m/s-29.1°C35.7%306.3hPa0V00:00:0000:00:0000:00:00
PU1XMG-162026-09-05 01:15:46-22.72775-42.0710392°131km/h9528m-4.6m/s-29.5°C36.4%304.9hPa0V00:00:0000:00:0000:00:00
PU1XMG-162026-09-05 01:15:39-22.72774-42.0731692°128km/h9557m-5.0m/s-29.5°C38.1%303.7hPa0V00:00:0000:00:0000:00:00
PU1XMG-162026-09-05 01:15:33-22.72769-42.0752493°128km/h9585m-5.1m/s-29.7°C39.8%302.5hPa0V00:00:0000:00:0000:00:00
PU1XMG-162026-09-05 01:15:26-22.72763-42.0779992°126km/h9625m-5.1m/s-30.0°C37.1%300.8hPa0V00:00:0000:00:0000:00:00
PU1XMG-162026-09-05 01:13:23-22.73109-42.1230180°135km/h10182m-4.8m/s-33.4°C3.9%278.1hPa0V08:02:0000:00:0000:00:00
PU1XMG-162026-09-05 01:13:16-22.73153-42.1255480°133km/h10214m-4.7m/s-33.6°C3.9%276.9hPa0V08:02:0000:00:0000:00:00
PU1XMG-162026-09-05 01:12:55-22.73286-42.1331381°135km/h10310m-4.7m/s-34.5°C4.1%273.1hPa0V08:02:0000:00:0000:00:00
PU1XMG-162026-09-05 01:12:49-22.73323-42.1353181°135km/h10338m-4.8m/s-34.8°C4.1%272.1hPa0V08:02:0000:00:0000:00:00
PU1XMG-162026-09-05 01:12:43-22.73359-42.1374881°135km/h10365m-5.1m/s-35.0°C4.3%271.0hPa0V08:02:0000:00:0000:00:00
PU1XMG-162026-09-05 01:12:38-22.73387-42.1392982°133km/h10389m-5.1m/s-35.2°C4.3%270.0hPa0V08:02:0000:00:0000:00:00
PU1XMG-162026-09-05 01:12:33-22.73421-42.1414782°135km/h10417m-5.0m/s-35.5°C4.4%268.9hPa0V08:02:0000:00:0000:00:00
PU1XMG-162026-09-05 01:12:27-22.73448-42.1433082°135km/h10442m-4.6m/s-35.7°C4.6%268.0hPa0V08:03:0000:00:0000:00:00
PU1XMG-162026-09-05 01:12:21-22.73481-42.1454982°135km/h10470m-5.2m/s-35.9°C4.8%266.9hPa0V08:03:0000:00:0000:00:00
PU1XMG-162026-09-05 01:12:16-22.73509-42.1473282°137km/h10495m-5.2m/s-36.2°C4.8%266.0hPa0V08:03:0000:00:0000:00:00
PU1XMG-162026-09-05 01:12:09-22.73545-42.1498982°137km/h10530m-5.3m/s-36.5°C5.0%264.7hPa0V08:03:0000:00:0000:00:00
PU1XMG-162026-09-05 01:12:04-22.73572-42.1517482°135km/h10556m-5.5m/s-36.7°C5.1%263.7hPa0V08:03:0000:00:0000:00:00
PU1XMG-162026-09-05 01:11:59-22.73602-42.1539484°137km/h10587m-5.4m/s-37.0°C5.4%262.6hPa0V08:03:0000:00:0000:00:00
PU1XMG-162026-09-05 01:11:53-22.73623-42.1561685°135km/h10619m-5.2m/s-37.3°C6.3%261.3hPa0V08:03:0000:00:0000:00:00
PU1XMG-162026-09-05 01:11:47-22.73642-42.1583286°131km/h10650m-5.7m/s-37.5°C8.2%260.2hPa0V08:03:0000:00:0000:00:00
PU1XMG-162026-09-05 01:11:41-22.73655-42.1601185°131km/h10677m-5.8m/s-37.7°C9.2%259.1hPa0V08:03:0000:00:0000:00:00
PU1XMG-162026-09-05 01:11:30-22.73685-42.1639988°130km/h10742m-5.9m/s-38.3°C9.6%256.7hPa0V08:04:0000:00:0000:00:00
PU1XMG-162026-09-05 01:11:25-22.73693-42.1657587°128km/h10770m-6.0m/s-38.6°C9.9%255.7hPa0V08:04:0000:00:0000:00:00
PU1XMG-162026-09-05 01:11:19-22.73703-42.1678588°128km/h10804m-5.8m/s-38.9°C10.2%254.4hPa0V08:04:0000:00:0000:00:00
PU1XMG-162026-09-05 01:11:14-22.73712-42.1695789°124km/h10833m-5.5m/s-39.2°C10.4%253.4hPa0V08:04:0000:00:0000:00:00
PU1XMG-162026-09-05 01:11:08-22.73720-42.1716489°128km/h10867m-6.0m/s-39.5°C10.7%252.1hPa0V08:04:0000:00:0000:00:00
PU1XMG-162026-09-05 01:10:57-22.73736-42.1757588°126km/h10937m-6.1m/s-40.2°C11.1%249.6hPa0V08:04:0000:00:0000:00:00
PU1XMG-162026-09-05 01:10:51-22.73741-42.1774789°126km/h10966m-5.9m/s-40.4°C11.4%248.5hPa0V08:04:0000:00:0000:00:00
PU1XMG-162026-09-05 01:10:46-22.73749-42.1795288°124km/h11000m-6.0m/s-40.8°C11.8%247.3hPa0V08:05:0000:00:0000:00:00
PU1XMG-162026-09-05 01:10:40-22.73756-42.1812089°122km/h11029m-6.0m/s-41.1°C12.1%246.2hPa0V08:05:0000:00:0000:00:00
PU1XMG-162026-09-05 01:10:35-22.73758-42.1828991°124km/h11059m-6.7m/s-41.4°C12.4%245.1hPa0V08:05:0000:00:0000:00:00
PU1XMG-162026-09-05 01:10:30-22.73758-42.1846091°122km/h11090m-6.3m/s-41.6°C12.7%244.1hPa0V08:05:0000:00:0000:00:00
PU1XMG-162026-09-05 01:10:24-22.73759-42.1866191°122km/h11125m-6.3m/s-42.0°C12.7%242.8hPa0V08:05:0000:00:0000:00:00
PU1XMG-162026-09-05 01:10:18-22.73761-42.1886090°122km/h11162m-6.3m/s-42.3°C13.0%241.5hPa0V08:05:0000:00:0000:00:00
PU1XMG-162026-09-05 01:10:13-22.73762-42.1902791°120km/h11191m-5.8m/s-42.6°C13.2%240.5hPa0V08:05:0000:00:0000:00:00
PU1XMG-162026-09-05 01:10:07-22.73757-42.1922593°119km/h11227m-5.8m/s-42.9°C12.6%239.2hPa0V08:05:0000:00:0000:00:00
PU1XMG-162026-09-05 01:10:02-22.73750-42.1938694°117km/h11256m-6.1m/s-43.2°C12.1%238.1hPa0V08:05:0000:00:0000:00:00
PU1XMG-162026-09-05 01:09:57-22.73740-42.1954895°120km/h11284m-5.4m/s-43.4°C11.4%237.1hPa0V00:00:0000:00:0000:00:00
PU1XMG-162026-09-05 01:09:51-22.73727-42.1974795°120km/h11317m-5.9m/s-43.6°C10.5%236.0hPa0V00:00:0000:00:0000:00:00
PU1XMG-162026-09-05 01:09:46-22.73712-42.1990996°120km/h11346m-6.0m/s-43.7°C10.0%235.0hPa0V00:00:0000:00:0000:00:00
PU1XMG-162026-09-05 01:09:41-22.73696-42.2007496°120km/h11375m-6.4m/s-44.1°C10.0%234.0hPa0V00:00:0000:00:0000:00:00
PU1XMG-162026-09-05 01:09:36-22.73680-42.2023999°120km/h11406m-6.4m/s-44.3°C9.7%232.9hPa0V00:00:0000:00:0000:00:00
PU1XMG-162026-09-05 01:09:31-22.73652-42.20436100°124km/h11442m-6.2m/s-44.6°C9.0%231.6hPa0V00:00:0000:00:0000:00:00
PU1XMG-162026-09-05 01:09:25-22.73625-42.20601101°122km/h11472m-6.3m/s-44.8°C8.0%230.7hPa0V00:00:0000:00:0000:00:00
PU1XMG-162026-09-05 01:09:18-22.73572-42.20864104°126km/h11519m-5.8m/s-44.9°C6.6%229.0hPa0V00:00:0000:00:0000:00:00
PU1XMG-162026-09-05 01:08:09-22.73073-42.23110102°130km/h11928m-6.4m/s-47.5°C6.3%215.4hPa0V08:07:0000:00:0000:00:00
PU1XMG-162026-09-05 01:08:03-22.73040-42.23320100°130km/h11965m-6.4m/s-47.7°C6.5%214.2hPa0V08:07:0000:00:0000:00:00
PU1XMG-162026-09-05 01:07:58-22.73010-42.23530100°128km/h12002m-6.6m/s-47.9°C6.5%213.1hPa0V08:07:0000:00:0000:00:00
PU1XMG-162026-09-05 01:07:47-22.72960-42.2391598°130km/h12069m-6.5m/s-48.4°C6.9%210.9hPa0V08:07:0000:00:0000:00:00
PU1XMG-162026-09-05 01:07:40-22.72933-42.2412799°131km/h12107m-6.3m/s-48.8°C7.3%209.7hPa0V08:07:0000:00:0000:00:00
PU1XMG-162026-09-05 01:07:32-22.72902-42.2440898°128km/h12157m-6.3m/s-49.2°C7.9%208.2hPa0V08:07:0000:00:0000:00:00
PU1XMG-162026-09-05 01:07:27-22.72883-42.2458298°128km/h12188m-6.9m/s-49.5°C8.2%207.1hPa0V08:07:0000:00:0000:00:00
PU1XMG-162026-09-05 01:07:21-22.72861-42.2479396°130km/h12225m-6.1m/s-49.7°C8.3%206.0hPa0V00:00:0000:00:0000:00:00
PU1XMG-162026-09-05 01:07:15-22.72840-42.2504097°130km/h12267m-6.0m/s-50.1°C8.3%204.7hPa0V00:00:0000:00:0000:00:00
PU1XMG-162026-09-05 01:07:08-22.72820-42.2524996°130km/h12304m-6.0m/s-50.4°C8.4%203.5hPa0V00:00:0000:00:0000:00:00
PU1XMG-162026-09-05 01:06:56-22.72794-42.2567294°128km/h12377m-6.2m/s-51.1°C8.4%201.3hPa0V00:00:0000:00:0000:00:00
PU1XMG-162026-09-05 01:06:40-22.72778-42.2623092°126km/h12473m-6.2m/s-51.9°C8.9%198.3hPa0V00:00:0000:00:0000:00:00
PU1XMG-162026-09-05 01:06:30-22.72779-42.2657790°128km/h12532m-6.2m/s-52.3°C10.1%196.6hPa0V00:00:0000:00:0000:00:00
PU1XMG-162026-09-05 01:06:07-22.72823-42.2736485°124km/h12666m-6.1m/s-53.0°C7.9%192.5hPa0V00:00:0000:00:0000:00:00
PU1XMG-162026-09-05 01:05:58-22.72859-42.2770385°124km/h12723m-5.7m/s-53.5°C8.2%190.8hPa0V00:00:0000:00:0000:00:00
PU1XMG-162026-09-05 01:05:39-22.72930-42.2834584°124km/h12834m-6.0m/s-54.4°C8.9%187.5hPa0V00:00:0000:00:0000:00:00
PU1XMG-162026-09-05 01:04:08-22.73306-42.3140581°122km/h13372m-6.1m/s-59.3°C13.6%172.3hPa0V00:00:0000:00:0000:00:00
PU1XMG-162026-09-05 01:04:00-22.73344-42.3163680°122km/h13416m-6.4m/s-59.7°C13.6%171.1hPa0V08:12:0000:00:0000:00:00
PU1XMG-162026-09-05 01:03:54-22.73378-42.3183480°124km/h13452m-6.1m/s-60.0°C13.6%170.1hPa0V08:12:0000:00:0000:00:00
PU1XMG-162026-09-05 01:03:49-22.73407-42.3200180°124km/h13483m-6.2m/s-60.3°C13.6%169.3hPa0V08:12:0000:00:0000:00:00
PU1XMG-162026-09-05 01:03:44-22.73436-42.3216780°124km/h13514m-6.4m/s-60.6°C13.7%168.5hPa0V08:12:0000:00:0000:00:00
PU1XMG-162026-09-05 01:03:38-22.73472-42.3236680°124km/h13551m-6.7m/s-60.9°C13.5%167.5hPa0V08:12:0000:00:0000:00:00
PU1XMG-162026-09-05 01:03:31-22.73515-42.3259979°124km/h13596m-6.5m/s-61.3°C13.3%166.3hPa0V08:12:0000:00:0000:00:00
PU1XMG-162026-09-05 01:03:25-22.73555-42.3279879°122km/h13634m-6.4m/s-61.7°C13.0%165.3hPa0V08:12:0000:00:0000:00:00
PU1XMG-162026-09-05 01:03:20-22.73595-42.3299678°124km/h13672m-6.5m/s-61.8°C12.6%164.3hPa0V08:12:0000:00:0000:00:00
PU1XMG-162026-09-05 01:03:14-22.73631-42.3316277°124km/h13704m-6.5m/s-61.9°C12.1%163.5hPa0V08:12:0000:00:0000:00:00
PU1XMG-162026-09-05 01:03:08-22.73677-42.3335975°122km/h13741m-6.8m/s-62.2°C11.8%162.5hPa0V08:13:0000:00:0000:00:00
PU1XMG-162026-09-05 01:03:04-22.73720-42.3352075°122km/h13774m-6.6m/s-62.1°C11.4%161.6hPa0V08:13:0000:00:0000:00:00
PU1XMG-162026-09-05 01:02:57-22.73774-42.3371373°124km/h13812m-6.8m/s-62.2°C10.9%160.6hPa0V08:13:0000:00:0000:00:00
PU1XMG-162026-09-05 01:02:51-22.73837-42.3390770°124km/h13853m-6.6m/s-62.3°C10.4%159.6hPa0V08:13:0000:00:0000:00:00
PU1XMG-162026-09-05 01:02:45-22.73908-42.3409267°120km/h13891m-6.5m/s-62.5°C10.0%158.6hPa0V08:13:0000:00:0000:00:00
PU1XMG-162026-09-05 01:02:40-22.73971-42.3424567°124km/h13924m-6.9m/s-62.4°C9.7%157.7hPa0V08:13:0000:00:0000:00:00
PU1XMG-162026-09-05 01:02:33-22.74054-42.3446068°120km/h13971m-6.7m/s-62.4°C9.3%156.5hPa0V08:13:0000:00:0000:00:00
PU1XMG-162026-09-05 01:02:26-22.74135-42.3466768°117km/h14018m-7.0m/s-62.6°C9.2%155.3hPa0V08:13:0000:00:0000:00:00
PU1XMG-162026-09-05 01:02:21-22.74191-42.3481469°115km/h14053m-7.0m/s-62.7°C9.1%154.4hPa0V08:13:0000:00:0000:00:00
PU1XMG-162026-09-05 01:02:10-22.74308-42.3513671°117km/h14130m-7.4m/s-62.7°C8.7%152.5hPa0V08:13:0000:00:0000:00:00
PU1XMG-162026-09-05 01:02:05-22.74358-42.3528470°113km/h14165m-7.2m/s-62.9°C8.7%151.6hPa0V08:13:0000:00:0000:00:00
PU1XMG-162026-09-05 01:02:00-22.74419-42.3545470°110km/h14209m-7.3m/s-63.2°C8.8%150.6hPa0V08:13:0000:00:0000:00:00
PU1XMG-162026-09-05 01:01:54-22.74471-42.3559669°111km/h14245m-7.3m/s-63.4°C8.8%149.7hPa0V08:13:0000:00:0000:00:00
PU1XMG-162026-09-05 01:01:49-22.74534-42.3576669°111km/h14288m-7.4m/s-63.7°C8.9%148.7hPa0V08:13:0000:00:0000:00:00
PU1XMG-162026-09-05 01:01:43-22.74586-42.3590870°111km/h14325m-7.4m/s-64.0°C8.8%147.8hPa0V08:13:0000:00:0000:00:00
PU1XMG-162026-09-05 01:01:38-22.74645-42.3607971°111km/h14369m-7.9m/s-64.3°C8.9%146.7hPa0V08:13:0000:00:0000:00:00
PU1XMG-162026-09-05 01:01:30-22.74714-42.3628072°111km/h14422m-7.6m/s-64.6°C8.9%145.5hPa0V08:13:0000:00:0000:00:00
PU1XMG-162026-09-05 01:01:27-22.74758-42.3642473°113km/h14459m-7.7m/s-64.8°C9.0%144.6hPa0V08:14:0000:00:0000:00:00
PU1XMG-162026-09-05 01:01:19-22.74812-42.3660074°111km/h14505m-7.8m/s-65.0°C9.0%143.5hPa0V08:14:0000:00:0000:00:00
PU1XMG-162026-09-05 01:01:14-22.74852-42.3674474°111km/h14543m-7.6m/s-65.1°C8.9%142.6hPa0V08:14:0000:00:0000:00:00
PU1XMG-162026-09-05 01:01:08-22.74905-42.3691972°111km/h14590m-7.9m/s-65.4°C9.1%141.6hPa0V08:14:0000:00:0000:00:00
PU1XMG-162026-09-05 01:01:03-22.74949-42.3706374°110km/h14630m-8.2m/s-65.7°C9.3%140.7hPa0V08:14:0000:00:0000:00:00
PU1XMG-162026-09-05 01:00:58-22.74999-42.3723372°108km/h14679m-8.1m/s-66.0°C9.7%139.6hPa0V08:14:0000:00:0000:00:00
PU1XMG-162026-09-05 01:00:51-22.75056-42.3740071°110km/h14731m-8.4m/s-66.0°C10.1%138.6hPa0V08:14:0000:00:0000:00:00
PU1XMG-162026-09-05 01:00:47-22.75103-42.3753472°100km/h14779m-8.3m/s-66.1°C10.2%137.6hPa0V08:14:0000:00:0000:00:00
PU1XMG-162026-09-05 01:00:40-22.75145-42.3769175°100km/h14805m-8.2m/s-66.2°C10.4%136.6hPa0V08:14:0000:00:0000:00:00
PU1XMG-162026-09-05 01:00:34-22.75184-42.3784376°93km/h14851m-8.0m/s-65.1°C9.4%135.5hPa0V00:00:0000:00:0000:00:00
PU1XMG-162026-09-05 01:00:28-22.75220-42.3799177°91km/h14898m-7.9m/s-65.3°C9.6%134.5hPa0V00:00:0000:00:0000:00:00
PU1XMG-162026-09-05 01:00:23-22.75245-42.3811480°91km/h14936m-8.0m/s-65.4°C9.7%133.7hPa0V00:00:0000:00:0000:00:00
PU1XMG-162026-09-05 01:00:18-22.75269-42.3825982°89km/h14982m-7.6m/s-65.7°C10.1%132.7hPa0V00:00:0000:00:0000:00:00
PU1XMG-162026-09-05 01:00:12-22.75287-42.3838083°89km/h15021m-7.8m/s-65.9°C10.4%131.8hPa0V00:00:0000:00:0000:00:00
PU1XMG-162026-09-05 01:00:06-22.75304-42.3852784°91km/h15066m-8.2m/s-66.3°C10.7%130.8hPa0V00:00:0000:00:0000:00:00
PU1XMG-162026-09-05 00:59:59-22.75319-42.3869887°89km/h15119m-8.3m/s-66.7°C11.0%129.7hPa0V00:00:0000:00:0000:00:00
PU1XMG-162026-09-05 00:59:54-22.75326-42.3882189°91km/h15158m-7.6m/s-67.1°C11.4%128.9hPa0V00:00:0000:00:0000:00:00
PU1XMG-162026-09-05 00:59:48-22.75332-42.3897489°95km/h15204m-7.7m/s-67.4°C11.7%127.9hPa0V00:00:0000:00:0000:00:00
PU1XMG-162026-09-05 00:59:40-22.75338-42.3918889°99km/h15266m-7.9m/s-67.6°C11.7%126.6hPa0V00:00:0000:00:0000:00:00
PU1XMG-162026-09-05 00:59:31-22.75346-42.3943489°102km/h15336m-7.9m/s-68.0°C11.9%125.2hPa0V00:00:0000:00:0000:00:00
PU1XMG-162026-09-05 00:59:19-22.75360-42.3977190°102km/h15430m-8.1m/s-68.6°C12.2%123.2hPa0V00:00:0000:00:0000:00:00
PU1XMG-162026-09-05 00:59:11-22.75364-42.4002990°106km/h15501m-7.7m/s-69.2°C12.7%121.8hPa0V00:00:0000:00:0000:00:00
PU1XMG-162026-09-05 00:59:05-22.75364-42.4017391°106km/h15540m-7.8m/s-69.6°C12.8%121.0hPa0V00:00:0000:00:0000:00:00
PU1XMG-162026-09-05 00:58:59-22.75364-42.4037791°108km/h15594m-7.8m/s-70.1°C13.2%119.9hPa0V00:00:0000:00:0000:00:00
PU1XMG-162026-09-05 00:58:47-22.75366-42.4069690°106km/h15680m-6.8m/s-70.9°C13.7%118.2hPa0V00:00:0000:00:0000:00:00
PU1XMG-162026-09-05 00:58:42-22.75369-42.4086990°106km/h15727m-8.2m/s-71.2°C13.8%117.2hPa0V00:00:0000:00:0000:00:00
PU1XMG-162026-09-05 00:58:36-22.75372-42.4104290°106km/h15775m-8.1m/s-71.6°C13.9%116.3hPa0V00:00:0000:00:0000:00:00
PU1XMG-162026-09-05 00:58:31-22.75375-42.4118690°104km/h15815m-8.3m/s-72.0°C14.0%115.5hPa0V00:00:0000:00:0000:00:00
PU1XMG-162026-09-05 00:58:24-22.75381-42.4138489°104km/h15869m-8.3m/s-72.5°C14.2%114.4hPa0V00:00:0000:00:0000:00:00
PU1XMG-162026-09-05 00:58:13-22.75393-42.4167089°104km/h15948m-8.0m/s-73.2°C14.2%112.9hPa0V00:00:0000:00:0000:00:00
PU1XMG-162026-09-05 00:58:06-22.75404-42.4186786°104km/h16004m-8.0m/s-73.7°C14.1%111.8hPa0V00:00:0000:00:0000:00:00
PU1XMG-162026-09-05 00:57:52-22.75440-42.4226083°102km/h16117m-8.3m/s-74.5°C13.9%109.7hPa0V08:18:0000:00:0000:00:00
PU1XMG-162026-09-05 00:57:41-22.75492-42.4256579°102km/h16205m-8.0m/s-75.1°C13.7%108.1hPa0V08:18:0000:00:0000:00:00
PU1XMG-162026-09-05 00:57:34-22.75536-42.4275875°106km/h16260m-7.9m/s-75.4°C13.6%107.0hPa0V08:18:0000:00:0000:00:00
PU1XMG-162026-09-05 00:57:28-22.75588-42.4295075°100km/h16316m-8.0m/s-75.8°C13.9%106.0hPa0V08:18:0000:00:0000:00:00
PU1XMG-162026-09-05 00:57:21-22.75629-42.4310576°95km/h16363m-7.8m/s-76.0°C13.5%105.1hPa0V08:18:0000:00:0000:00:00
PU1XMG-162026-09-05 00:57:16-22.75665-42.4325177°91km/h16411m-7.9m/s-75.7°C12.5%104.3hPa0V08:18:0000:00:0000:00:00
PU1XMG-162026-09-05 00:57:10-22.75694-42.4339280°88km/h16459m-8.2m/s-75.7°C12.1%103.4hPa0V00:00:0000:00:0000:00:00
PU1XMG-162026-09-05 00:57:04-22.75715-42.4350979°86km/h16499m-8.2m/s-75.8°C12.4%102.7hPa0V00:00:0000:00:0000:00:00
PU1XMG-162026-09-05 00:56:58-22.75738-42.4364684°82km/h16547m-8.0m/s-76.1°C12.5%101.9hPa0V00:00:0000:00:0000:00:00
PU1XMG-162026-09-05 00:56:52-22.75747-42.4377788°80km/h16595m-7.8m/s-76.3°C12.1%101.0hPa0V00:00:0000:00:0000:00:00
PU1XMG-162026-09-05 00:56:48-22.75752-42.4388389°78km/h16635m-8.4m/s-75.1°C10.8%100.3hPa0V00:00:0000:00:0000:00:00
PU1XMG-162026-09-05 00:56:41-22.75752-42.4401092°78km/h16684m-8.2m/s-74.9°C10.1%99.5hPa0V00:00:0000:00:0000:00:00
PU1XMG-162026-09-05 00:56:35-22.75755-42.4414387°82km/h16734m-8.5m/s-75.2°C10.0%98.6hPa0V00:00:0000:00:0000:00:00
PU1XMG-162026-09-05 00:56:29-22.75763-42.4429590°82km/h16792m-8.6m/s-75.6°C10.2%97.7hPa0V00:00:0000:00:0000:00:00
PU1XMG-162026-09-05 00:56:21-22.75771-42.4448187°88km/h16859m-8.5m/s-75.8°C10.1%96.5hPa0V00:00:0000:00:0000:00:00
PU1XMG-162026-09-05 00:56:13-22.75789-42.4467184°93km/h16926m-8.6m/s-74.9°C9.1%95.4hPa0V00:00:0000:00:0000:00:00
PU1XMG-162026-09-05 00:56:05-22.75815-42.4484579°91km/h16986m-8.5m/s-75.0°C8.8%94.5hPa0V00:00:0000:00:0000:00:00
PU1XMG-162026-09-05 00:56:00-22.75847-42.4498677°88km/h17037m-8.5m/s-74.9°C8.5%93.7hPa0V00:00:0000:00:0000:00:00
PU1XMG-162026-09-05 00:55:44-22.75947-42.4531268°78km/h17162m-8.5m/s-74.7°C8.5%91.6hPa0V00:00:0000:00:0000:00:00
PU1XMG-162026-09-05 00:55:22-22.76084-42.4561779°37km/h17344m-8.8m/s-71.5°C6.2%88.8hPa0V08:20:0000:00:0000:00:00
PU1XMG-162026-09-05 00:55:17-22.76085-42.4567390°31km/h17397m-8.5m/s-69.9°C5.2%88.1hPa0V08:20:0000:00:0000:00:00
PU1XMG-162026-09-05 00:55:11-22.76082-42.4572094°29km/h17449m-9.0m/s-69.8°C5.1%87.3hPa0V08:20:0000:00:0000:00:00
PU1XMG-162026-09-05 00:55:05-22.76071-42.45767113°31km/h17501m-8.5m/s-70.1°C5.1%86.6hPa0V08:20:0000:00:0000:00:00
PU1XMG-162026-09-05 00:54:55-22.76032-42.45836128°38km/h17580m-8.9m/s-70.2°C4.9%85.4hPa0V08:20:0000:00:0000:00:00
PU1XMG-162026-09-05 00:54:49-22.75990-42.45885134°42km/h17631m-9.1m/s-69.9°C4.6%84.7hPa0V08:20:0000:00:0000:00:00
PU1XMG-162026-09-05 00:54:44-22.75955-42.45926133°42km/h17675m-8.9m/s-70.1°C4.5%84.1hPa0V08:20:0000:00:0000:00:00
PU1XMG-162026-09-05 00:54:38-22.75905-42.45984136°40km/h17736m-9.1m/s-70.4°C4.4%83.2hPa0V00:00:0000:00:0000:00:00
PU1XMG-162026-09-05 00:54:29-22.75849-42.46047130°42km/h17805m-9.1m/s-70.8°C4.5%82.2hPa0V00:00:0000:00:0000:00:00
PU1XMG-162026-09-05 00:54:24-22.75810-42.46095132°51km/h17850m-8.8m/s-71.1°C4.6%81.6hPa0V00:00:0000:00:0000:00:00
PU1XMG-162026-09-05 00:54:19-22.75761-42.46158127°51km/h17902m-8.9m/s-70.8°C4.5%80.9hPa0V00:00:0000:00:0000:00:00
PU1XMG-162026-09-05 00:54:12-22.75720-42.46227121°55km/h17955m-9.1m/s-70.1°C4.1%80.2hPa0V00:00:0000:00:0000:00:00
PU1XMG-162026-09-05 00:54:07-22.75687-42.46293115°55km/h18001m-9.2m/s-70.0°C4.0%79.5hPa0V00:00:0000:00:0000:00:00
PU1XMG-162026-09-05 00:54:00-22.75659-42.46385109°46km/h18065m-9.5m/s-69.3°C3.7%78.7hPa0V00:00:0000:00:0000:00:00
PU1XMG-162026-09-05 00:53:53-22.75627-42.46474111°53km/h18128m-9.4m/s-69.0°C3.7%77.9hPa0V00:00:0000:00:0000:00:00
PU1XMG-162026-09-05 00:53:47-22.75606-42.46550103°46km/h18183m-9.4m/s-69.0°C3.6%77.2hPa0V00:00:0000:00:0000:00:00
PU1XMG-162026-09-05 00:53:40-22.75592-42.46637100°49km/h18248m-9.6m/s-68.2°C3.3%76.3hPa0V00:00:0000:00:0000:00:00
PU1XMG-162026-09-05 00:53:32-22.75569-42.46768103°57km/h18335m-9.5m/s-67.8°C3.3%75.3hPa0V00:00:0000:00:0000:00:00
PU1XMG-162026-09-05 00:51:00-22.75195-42.48196102°35km/h19800m-10.6m/s-62.1°C2.0%59.3hPa0V00:00:0000:00:0000:00:00
PU1XMG-162026-09-05 00:50:35-22.75234-42.4836561°15km/h20046m-10.4m/s-60.8°C1.8%57.0hPa0V00:00:0000:00:0000:00:00
PU1XMG-162026-09-05 00:50:23-22.75256-42.4840246°15km/h20170m-10.6m/s-61.4°C1.9%55.9hPa0V08:25:0000:00:0000:00:00
PU1XMG-162026-09-05 00:50:07-22.75288-42.4844677°13km/h20339m-10.7m/s-60.9°C1.9%54.4hPa0V08:25:0000:00:0000:00:00
PU1XMG-162026-09-05 00:50:00-22.75288-42.48465118°5km/h20413m-10.4m/s-59.9°C1.8%53.8hPa0V08:25:0000:00:0000:00:00
PU1XMG-162026-09-05 00:49:49-22.75273-42.48475149°7km/h20529m-10.9m/s-60.0°C1.7%52.8hPa0V08:25:0000:00:0000:00:00
PU1XMG-162026-09-05 00:49:43-22.75264-42.48479169°7km/h20591m-10.6m/s-60.4°C1.8%52.3hPa0V08:25:0000:00:0000:00:00
PU1XMG-162026-09-05 00:49:35-22.75241-42.48474195°15km/h20674m-10.8m/s-60.9°C1.8%51.6hPa0V08:25:0000:00:0000:00:00
PU1XMG-162026-09-05 00:49:26-22.75208-42.48472164°13km/h20771m-10.4m/s-61.2°C1.9%50.8hPa0V00:00:0000:00:0000:00:00
PU1XMG-162026-09-05 00:49:15-22.75185-42.48479198°5km/h20889m-10.8m/s-60.2°C1.7%49.8hPa0V00:00:0000:00:0000:00:00
PU1XMG-162026-09-05 00:49:08-22.75182-42.4848041°2km/h20965m-10.5m/s-60.5°C1.7%49.2hPa0V00:00:0000:00:0000:00:00
PU1XMG-162026-09-05 00:48:59-22.75194-42.48477302°11km/h21062m-11.0m/s-60.8°C1.8%48.5hPa0V00:00:0000:00:0000:00:00
PU1XMG-162026-09-05 00:48:47-22.75192-42.48452223°7km/h21192m-11.3m/s-60.7°C1.7%47.4hPa0V00:00:0000:00:0000:00:00
PU1XMG-162026-09-05 00:48:40-22.75176-42.48443193°11km/h21281m-11.2m/s-61.0°C1.8%46.8hPa0V00:00:0000:00:0000:00:00
PU1XMG-162026-09-05 00:47:57-22.75096-42.4856270°20km/h21762m-11.3m/s-60.3°C1.8%43.3hPa0V00:00:0000:00:0000:00:00
PU1XMG-162026-09-05 00:47:13-22.75208-42.48562290°13km/h22274m-12.5m/s-59.4°C1.6%39.9hPa0V00:00:0000:00:0000:00:00
PU1XMG-162026-09-05 00:47:08-22.75218-42.48548321°5km/h22348m-12.5m/s-59.6°C1.7%39.5hPa0V00:00:0000:00:0000:00:00
PU1XMG-162026-09-05 00:46:53-22.75212-42.48525253°4km/h22530m-12.6m/s-59.6°C1.7%38.3hPa0V08:29:0000:00:0000:00:00
PU1XMG-162026-09-05 00:46:30-22.75228-42.4854626°15km/h22809m-13.3m/s-58.3°C1.5%36.6hPa0V08:29:0000:00:0000:00:00
PU1XMG-162026-09-05 00:46:23-22.75255-42.48549359°13km/h22901m-13.3m/s-58.3°C1.5%36.1hPa0V08:29:0000:00:0000:00:00
PU1XMG-162026-09-05 00:46:17-22.75267-42.48541301°7km/h22980m-13.5m/s-58.3°C1.5%35.7hPa0V08:29:0000:00:0000:00:00
PU1XMG-162026-09-05 00:46:12-22.75270-42.48529270°11km/h23060m-14.1m/s-58.5°C1.6%35.2hPa0V08:29:0000:00:0000:00:00
PU1XMG-162026-09-05 00:46:06-22.75262-42.48510241°16km/h23127m-14.3m/s-58.6°C1.6%34.8hPa0V00:00:0000:00:0000:00:00
PU1XMG-162026-09-05 00:45:59-22.75247-42.48492202°5km/h23222m-14.0m/s-59.0°C1.7%34.3hPa0V00:00:0000:00:0000:00:00
PU1XMG-162026-09-05 00:45:49-22.75257-42.48484361°13km/h23379m-14.9m/s-57.3°C1.5%33.5hPa0V00:00:0000:00:0000:00:00
PU1XMG-162026-09-05 00:45:42-22.75264-42.48483157°7km/h23468m-15.0m/s-56.8°C1.5%33.0hPa0V00:00:0000:00:0000:00:00
PU1XMG-162026-09-05 00:45:37-22.75255-42.48484157°4km/h23542m-14.6m/s-57.0°C1.6%32.6hPa0V00:00:0000:00:0000:00:00
PU1XMG-162026-09-05 00:45:31-22.75261-42.48483343°11km/h23632m-15.1m/s-56.0°C1.5%32.2hPa0V00:00:0000:00:0000:00:00
PU1XMG-162026-09-05 00:45:26-22.75273-42.48477305°13km/h23702m-14.0m/s-56.0°C1.5%31.8hPa0V00:00:0000:00:0000:00:00
PU1XMG-162026-09-05 00:45:17-22.75283-42.48451307°7km/h23923m-24.0m/s-54.8°C1.4%30.8hPa0V00:00:0000:00:0000:00:00
PU1XMG-162026-09-05 00:45:11-22.75294-42.48435306°18km/h24052m-20.2m/s-54.6°C1.3%30.1hPa0V00:00:0000:00:0000:00:00
PU1XMG-162026-09-05 00:45:06-22.75303-42.48399268°18km/h24167m-20.6m/s-54.1°C1.3%29.6hPa0V00:00:0000:00:0000:00:00
PU1XMG-162026-09-05 00:45:00-22.75307-42.48381349°15km/h24251m-15.5m/s-54.2°C1.3%29.2hPa0V00:00:0000:00:0000:00:00
PU1XMG-162026-09-05 00:44:55-22.75336-42.48372323°18km/h24350m-10.5m/s-54.1°C1.4%28.7hPa0V00:00:0000:00:0000:00:00
PU1XMG-162026-09-05 00:44:44-22.75354-42.48353277°5km/h24301m10.4m/s-54.4°C1.3%28.9hPa0V00:00:0000:00:0000:00:00
PU1XMG-162026-09-05 00:44:37-22.75364-42.48325302°24km/h24255m5.4m/s-54.2°C1.3%29.1hPa0V00:00:0000:00:0000:00:00
PU1XMG-162026-09-05 00:44:31-22.75379-42.48295302°18km/h24215m10.6m/s-54.2°C1.3%29.3hPa0V00:00:0000:00:0000:00:00
PU1XMG-162026-09-05 00:44:26-22.75390-42.48276303°18km/h24182m8.8m/s-54.3°C1.3%29.4hPa0V00:00:0000:00:0000:00:00
PU1XMG-162026-09-05 00:44:20-22.75405-42.48242290°26km/h24142m6.4m/s-54.5°C1.3%29.6hPa0V00:00:0000:00:0000:00:00
PU1XMG-162026-09-05 00:44:13-22.75418-42.48212310°7km/h24096m9.5m/s-54.9°C1.4%29.8hPa0V00:00:0000:00:0000:00:00
PU1XMG-162026-09-05 00:44:07-22.75423-42.48198299°15km/h24056m5.1m/s-54.8°C1.4%30.0hPa0V00:00:0000:00:0000:00:00
PU1XMG-162026-09-05 00:44:02-22.75431-42.48182316°15km/h24022m6.9m/s-54.8°C1.4%30.2hPa0V00:00:0000:00:0000:00:00
PU1XMG-162026-09-05 00:43:56-22.75441-42.48165298°15km/h23983m4.1m/s-55.1°C1.4%30.4hPa0V00:00:0000:00:0000:00:00
PU1XMG-162026-09-05 00:43:51-22.75448-42.48147317°16km/h23948m4.5m/s-55.3°C1.4%30.5hPa0V00:00:0000:00:0000:00:00
PU1XMG-162026-09-05 00:43:38-22.75463-42.48104304°5km/h23855m8.2m/s-55.7°C1.4%31.0hPa0V00:00:0000:00:0000:00:00
PU1XMG-162026-09-05 00:43:29-22.75473-42.48081279°13km/h23800m9.5m/s-55.8°C1.4%31.3hPa0V00:00:0000:00:0000:00:00
PU1XMG-162026-09-05 00:43:22-22.75486-42.48061324°15km/h23755m3.9m/s-56.2°C1.4%31.5hPa0V00:00:0000:00:0000:00:00
PU1XMG-162026-09-05 00:43:15-22.75507-42.48045323°9km/h23707m4.6m/s-56.4°C1.5%31.7hPa0V00:00:0000:00:0000:00:00
PU1XMG-162026-09-05 00:43:08-22.75514-42.480405km/h23659m10.0m/s-56.5°C1.5%31.9hPa0V00:00:0000:00:0000:00:00
PU1XMG-162026-09-05 00:43:02-22.75517-42.48037199°9km/h23618m4.7m/s-57.3°C1.5%32.2hPa0V00:00:0000:00:0000:00:00
PU1XMG-162026-09-05 00:42:52-22.75500-42.48040193°7km/h23548m5.9m/s-57.1°C1.5%32.5hPa0V00:00:0000:00:0000:00:00
PU1XMG-162026-09-05 00:42:44-22.75500-42.4804616°9km/h23494m3.8m/s-57.3°C1.5%32.8hPa0V00:00:0000:00:0000:00:00
PU1XMG-162026-09-05 00:42:38-22.75510-42.48040317°9km/h23453m8.1m/s-57.5°C1.5%33.0hPa0V00:00:0000:00:0000:00:00
PU1XMG-162026-09-05 00:42:33-22.75519-42.4803824°9km/h23419m7.5m/s-57.6°C1.5%33.2hPa0V00:00:0000:00:0000:00:00
PU1XMG-162026-09-05 00:40:39-22.75571-42.47933103°5km/h22689m7.3m/s-59.0°C1.7%37.3hPa0V00:00:0000:00:0000:00:00
PU1XMG-162026-09-05 00:40:24-22.75561-42.47948194°5km/h22596m7.6m/s-59.5°C1.8%37.8hPa0V00:00:0000:00:0000:00:00
PU1XMG-162026-09-05 00:40:19-22.75566-42.47949349°7km/h22561m6.2m/s-59.8°C1.8%38.1hPa0V00:00:0000:00:0000:00:00
PU1XMG-162026-09-05 00:40:13-22.75562-42.47943221°15km/h22527m6.0m/s-59.6°C1.8%38.3hPa0V00:00:0000:00:0000:00:00
PU1XMG-162026-09-05 00:40:07-22.75550-42.47934279°5km/h22498m6.5m/s-59.8°C1.8%38.5hPa0V00:00:0000:00:0000:00:00
PU1XMG-162026-09-05 00:40:02-22.75552-42.47927247°5km/h22469m6.8m/s-59.7°C1.8%38.7hPa0V00:00:0000:00:0000:00:00
PU1XMG-162026-09-05 00:39:56-22.75545-42.47923232°4km/h22431m9.6m/s-59.8°C1.7%38.9hPa0V00:00:0000:00:0000:00:00
PU1XMG-162026-09-05 00:39:50-22.75554-42.47910323°11km/h22387m7.4m/s-59.9°C1.8%39.1hPa0V00:00:0000:00:0000:00:00
PU1XMG-162026-09-05 00:39:43-22.75556-42.47901235°7km/h22349m4.9m/s-59.8°C1.8%39.4hPa0V00:00:0000:00:0000:00:00
PU1XMG-162026-09-05 00:39:38-22.75562-42.47886307°15km/h22318m6.0m/s-59.6°C1.8%39.6hPa0V00:00:0000:00:0000:00:00
PU1XMG-162026-09-05 00:39:33-22.75572-42.47866288°13km/h22288m6.9m/s-59.5°C1.8%39.8hPa0V00:00:0000:00:0000:00:00
PU1XMG-162026-09-05 00:39:26-22.75576-42.47849322°7km/h22247m5.0m/s-59.7°C1.8%40.0hPa0V00:00:0000:00:0000:00:00
PU1XMG-162026-09-05 00:39:19-22.75593-42.47835332°11km/h22204m5.9m/s-59.4°C1.8%40.3hPa0V00:00:0000:00:0000:00:00
PU1XMG-162026-09-05 00:39:13-22.75607-42.47824300°13km/h22164m5.9m/s-59.3°C1.8%40.6hPa0V00:00:0000:00:0000:00:00
PU1XMG-162026-09-05 00:39:06-22.75616-42.47806311°5km/h22120m4.4m/s-59.1°C1.8%40.8hPa0V00:00:0000:00:0000:00:00
PU1XMG-162026-09-05 00:38:58-22.75626-42.47790340°11km/h22071m7.1m/s-59.0°C1.7%41.2hPa0V00:00:0000:00:0000:00:00
PU1XMG-162026-09-05 00:38:51-22.75641-42.47786316°9km/h22022m7.0m/s-59.0°C1.8%41.5hPa0V00:00:0000:00:0000:00:00
PU1XMG-162026-09-05 00:38:42-22.75666-42.4777816°15km/h21974m7.2m/s-59.1°C1.8%41.8hPa0V00:00:0000:00:0000:00:00
PU1XMG-162026-09-05 00:38:35-22.75686-42.47777353°15km/h21933m5.3m/s-59.7°C1.9%42.1hPa0V00:00:0000:00:0000:00:00
PU1XMG-162026-09-05 00:38:25-22.75723-42.4779256°15km/h21871m5.8m/s-59.7°C1.8%42.5hPa0V00:00:0000:00:0000:00:00
PU1XMG-162026-09-05 00:38:19-22.75731-42.4780354°11km/h21834m7.5m/s-60.0°C1.9%42.8hPa0V00:00:0000:00:0000:00:00
PU1XMG-162026-09-05 00:38:13-22.75747-42.4783772°26km/h21797m3.9m/s-60.3°C1.9%43.0hPa0V00:00:0000:00:0000:00:00
PU1XMG-162026-09-05 00:38:01-22.75745-42.47895104°20km/h21725m7.9m/s-60.5°C1.9%43.5hPa0V00:00:0000:00:0000:00:00
PU1XMG-162026-09-05 00:37:55-22.75747-42.4792492°15km/h21689m5.2m/s-60.4°C1.9%43.8hPa0V00:00:0000:00:0000:00:00
PU1XMG-162026-09-05 00:37:46-22.75728-42.47952122°18km/h21634m8.3m/s-60.4°C1.8%44.2hPa0V00:00:0000:00:0000:00:00
PU1XMG-162026-09-05 00:37:41-22.75722-42.47969107°13km/h21604m7.6m/s-60.7°C1.8%44.4hPa0V00:00:0000:00:0000:00:00
PU1XMG-162026-09-05 00:37:35-22.75706-42.47988143°20km/h21567m4.0m/s-61.2°C1.9%44.6hPa0V00:00:0000:00:0000:00:00
PU1XMG-162026-09-05 00:37:27-22.75681-42.47999169°9km/h21517m5.9m/s-61.7°C2.0%45.0hPa0V00:00:0000:00:0000:00:00
PU1XMG-162026-09-05 00:37:22-22.75669-42.48008132°9km/h21488m4.7m/s-61.8°C2.0%45.2hPa0V00:00:0000:00:0000:00:00
PU1XMG-162026-09-05 00:37:16-22.75656-42.48021158°13km/h21451m7.6m/s-61.7°C2.0%45.5hPa0V00:00:0000:00:0000:00:00
PU1XMG-162026-09-05 00:37:11-22.75642-42.48025165°11km/h21420m6.6m/s-61.6°C1.9%45.7hPa0V00:00:0000:00:0000:00:00
PU1XMG-162026-09-05 00:37:05-22.75623-42.48034158°18km/h21380m5.1m/s-61.5°C2.1%46.0hPa0V00:00:0000:00:0000:00:00
PU1XMG-162026-09-05 00:37:00-22.75603-42.48036181°15km/h21348m3.9m/s-61.3°C2.0%46.2hPa0V00:00:0000:00:0000:00:00
PU1XMG-162026-09-05 00:36:54-22.75590-42.48032227°9km/h21310m9.5m/s-61.1°C2.0%46.5hPa0V00:00:0000:00:0000:00:00
PU1XMG-162026-09-05 00:36:48-22.75569-42.48021197°18km/h21263m7.4m/s-60.9°C2.0%46.9hPa0V00:00:0000:00:0000:00:00
PU1XMG-162026-09-05 00:36:42-22.75553-42.48011220°9km/h21228m4.0m/s-60.7°C2.0%47.2hPa0V00:00:0000:00:0000:00:00
PU1XMG-162026-09-05 00:36:33-22.75549-42.47993257°9km/h21176m5.8m/s-60.4°C1.9%47.5hPa0V00:00:0000:00:0000:00:00
PU1XMG-162026-09-05 00:36:28-22.75544-42.47979262°15km/h21142m5.6m/s-60.3°C2.0%47.8hPa0V00:00:0000:00:0000:00:00
PU1XMG-162026-09-05 00:35:30-22.75568-42.47928138°9km/h20787m5.5m/s-60.9°C2.0%50.6hPa0V00:00:0000:00:0000:00:00
PU1XMG-162026-09-05 00:35:23-22.75554-42.47930187°9km/h20752m6.1m/s-61.0°C2.1%50.9hPa0V00:00:0000:00:0000:00:00
PU1XMG-162026-09-05 00:35:15-22.75533-42.47923178°13km/h20702m7.2m/s-60.7°C2.0%51.3hPa0V00:00:0000:00:0000:00:00
PU1XMG-162026-09-05 00:35:09-22.75514-42.47919203°11km/h20666m5.1m/s-60.7°C2.0%51.6hPa0V00:00:0000:00:0000:00:00
PU1XMG-162026-09-05 00:35:04-22.75499-42.47914180°15km/h20633m5.5m/s-60.6°C2.0%51.9hPa0V00:00:0000:00:0000:00:00
PU1XMG-162026-09-05 00:34:58-22.75480-42.47918122°5km/h20586m3.9m/s-60.3°C2.0%52.3hPa0V00:00:0000:00:0000:00:00
PU1XMG-162026-09-05 00:34:35-22.75475-42.4793374°7km/h20451m5.8m/s-59.5°C1.8%53.4hPa0V00:00:0000:00:0000:00:00
PU1XMG-162026-09-05 00:34:29-22.75466-42.47943123°13km/h20414m5.1m/s-59.8°C1.9%53.7hPa0V00:00:0000:00:0000:00:00
PU1XMG-162026-09-05 00:34:24-22.75466-42.4796267°22km/h20380m4.4m/s-60.6°C2.0%54.0hPa0V00:00:0000:00:0000:00:00
PU1XMG-162026-09-05 00:34:18-22.75480-42.4798155°13km/h20343m6.8m/s-60.5°C1.9%54.3hPa0V00:00:0000:00:0000:00:00
PU1XMG-162026-09-05 00:34:12-22.75486-42.4800380°15km/h20303m7.8m/s-61.1°C2.1%54.6hPa0V00:00:0000:00:0000:00:00
PU1XMG-162026-09-05 00:34:07-22.75497-42.4801829°13km/h20271m6.9m/s-61.0°C2.1%54.9hPa0V00:00:0000:00:0000:00:00
PU1XMG-162026-09-05 00:34:02-22.75511-42.4803377°15km/h20234m4.4m/s-60.8°C2.0%55.3hPa0V00:00:0000:00:0000:00:00
PU1XMG-162026-09-05 00:33:55-22.75520-42.4805542°13km/h20196m6.4m/s-61.1°C2.1%55.6hPa0V00:00:0000:00:0000:00:00
PU1XMG-162026-09-05 00:33:50-22.75537-42.4806416°15km/h20164m2.8m/s-61.4°C2.1%55.9hPa0V00:00:0000:00:0000:00:00
PU1XMG-162026-09-05 00:33:44-22.75548-42.4809482°27km/h20134m4.4m/s-61.2°C2.1%56.2hPa0V00:00:0000:00:0000:00:00
PU1XMG-162026-09-05 00:33:39-22.75556-42.4812045°16km/h20107m5.0m/s-61.0°C2.1%56.4hPa0V00:00:0000:00:0000:00:00
PU1XMG-162026-09-05 00:33:33-22.75572-42.4813966°20km/h20073m7.0m/s-60.8°C2.1%56.7hPa0V00:00:0000:00:0000:00:00
PU1XMG-162026-09-05 00:33:28-22.75583-42.4816461°20km/h20044m6.5m/s-60.8°C2.0%57.0hPa0V00:00:0000:00:0000:00:00
PU1XMG-162026-09-05 00:33:22-22.75601-42.4819058°20km/h20009m5.6m/s-60.9°C2.1%57.3hPa0V00:00:0000:00:0000:00:00
PU1XMG-162026-09-05 00:33:16-22.75612-42.4822585°24km/h19977m4.9m/s-60.8°C2.1%57.6hPa0V00:00:0000:00:0000:00:00
PU1XMG-162026-09-05 00:33:11-22.75622-42.4825164°20km/h19948m4.0m/s-61.2°C2.1%57.9hPa0V00:00:0000:00:0000:00:00
PU1XMG-162026-09-05 00:33:00-22.75644-42.4834193°27km/h19886m6.3m/s-61.1°C2.1%58.5hPa0V00:00:0000:00:0000:00:00
PU1XMG-162026-09-05 00:32:55-22.75643-42.4838986°31km/h19853m4.6m/s-61.3°C2.2%58.8hPa0V00:00:0000:00:0000:00:00
PU1XMG-162026-09-05 00:32:48-22.75638-42.48440106°29km/h19819m4.6m/s-61.6°C2.3%59.1hPa0V00:00:0000:00:0000:00:00
PU1XMG-162026-09-05 00:32:43-22.75624-42.48484105°35km/h19792m3.8m/s-61.7°C2.3%59.4hPa0V00:00:0000:00:0000:00:00
PU1XMG-162026-09-05 00:32:37-22.75611-42.48537105°33km/h19760m6.5m/s-61.9°C2.3%59.7hPa0V00:00:0000:00:0000:00:00
PU1XMG-162026-09-05 00:32:31-22.75597-42.48591112°31km/h19727m5.2m/s-61.6°C2.3%60.0hPa0V00:00:0000:00:0000:00:00
PU1XMG-162026-09-05 00:32:26-22.75583-42.48633108°29km/h19691m6.8m/s-61.3°C2.3%60.3hPa0V00:00:0000:00:0000:00:00
PU1XMG-162026-09-05 00:32:20-22.75574-42.48679102°37km/h19664m5.5m/s-61.2°C2.2%60.6hPa0V00:00:0000:00:0000:00:00
PU1XMG-162026-09-05 00:32:15-22.75565-42.48721107°26km/h19636m7.6m/s-61.7°C2.3%60.9hPa0V00:00:0000:00:0000:00:00
PU1XMG-162026-09-05 00:32:08-22.75555-42.4876597°33km/h19596m6.2m/s-61.8°C2.3%61.2hPa0V00:00:0000:00:0000:00:00
PU1XMG-162026-09-05 00:31:55-22.75547-42.4888094°33km/h19528m4.6m/s-61.7°C2.4%61.9hPa0V00:00:0000:00:0000:00:00
PU1XMG-162026-09-05 00:31:50-22.75543-42.4892893°31km/h19497m4.2m/s-61.8°C2.3%62.2hPa0V00:00:0000:00:0000:00:00
PU1XMG-162026-09-05 00:31:43-22.75540-42.4898099°31km/h19458m4.9m/s-62.1°C2.5%62.6hPa0V00:00:0000:00:0000:00:00
PU1XMG-162026-09-05 00:31:38-22.75534-42.49027107°37km/h19430m3.8m/s-62.2°C2.5%62.9hPa0V00:00:0000:00:0000:00:00
PU1XMG-162026-09-05 00:31:26-22.75488-42.49133113°35km/h19365m5.0m/s-61.9°C2.4%63.6hPa0V00:00:0000:00:0000:00:00
PU1XMG-162026-09-05 00:31:19-22.75463-42.49190134°37km/h19324m4.4m/s-62.5°C2.6%64.0hPa0V00:00:0000:00:0000:00:00
PU1XMG-162026-09-05 00:31:14-22.75430-42.49228126°42km/h19297m4.2m/s-63.1°C2.8%64.3hPa0V00:00:0000:00:0000:00:00
PU1XMG-162026-09-05 00:31:08-22.75403-42.49284118°35km/h19262m6.6m/s-62.9°C2.7%64.7hPa0V00:00:0000:00:0000:00:00
PU1XMG-162026-09-05 00:31:02-22.75369-42.49319150°27km/h19226m5.1m/s-62.8°C2.8%65.1hPa0V00:00:0000:00:0000:00:00
PU1XMG-162026-09-05 00:30:54-22.75323-42.49373135°35km/h19173m6.3m/s-62.5°C2.8%65.6hPa0V00:00:0000:00:0000:00:00
PU1XMG-162026-09-05 00:25:26-22.74257-42.5285363°55km/h17252m8.3m/s-72.5°C15.6%90.2hPa0V00:00:0000:00:0000:00:00
PU1XMG-162026-09-05 00:25:17-22.74340-42.5299457°77km/h17183m6.8m/s-73.0°C16.0%91.2hPa0V00:00:0000:00:0000:00:00
PU1XMG-162026-09-05 00:24:52-22.74519-42.5349676°91km/h17049m5.3m/s-74.8°C18.1%93.3hPa0V00:00:0000:00:0000:00:00
PU1XMG-162026-09-05 00:24:40-22.74592-42.5383182°100km/h16975m5.0m/s-75.1°C18.2%94.5hPa0V00:00:0000:00:0000:00:00
PU1XMG-162026-09-05 00:24:28-22.74631-42.5411386°99km/h16915m5.3m/s-75.1°C17.7%95.5hPa0V00:00:0000:00:0000:00:00
PU1XMG-162026-09-05 00:24:22-22.74644-42.5427785°97km/h16883m6.1m/s-76.0°C19.8%96.0hPa0V00:00:0000:00:0000:00:00
PU1XMG-162026-09-05 00:24:17-22.74651-42.5440389°93km/h16855m5.0m/s-75.9°C20.0%96.5hPa0V00:00:0000:00:0000:00:00
PU1XMG-162026-09-05 00:24:08-22.74660-42.5463489°97km/h16806m6.1m/s-75.7°C19.3%97.3hPa0V00:00:0000:00:0000:00:00
PU1XMG-162026-09-05 00:24:02-22.74661-42.5478290°86km/h16773m6.2m/s-75.4°C19.1%97.8hPa0V00:00:0000:00:0000:00:00
PU1XMG-162026-09-05 00:23:56-22.74665-42.5492689°89km/h16740m4.6m/s-75.2°C19.2%98.4hPa0V00:00:0000:00:0000:00:00
PU1XMG-162026-09-05 00:23:50-22.74671-42.5507288°86km/h16708m4.4m/s-74.9°C19.1%99.0hPa0V00:00:0000:00:0000:00:00
PU1XMG-162026-09-05 00:23:44-22.74672-42.5521194°89km/h16678m6.1m/s-74.9°C18.2%99.5hPa0V00:00:0000:00:0000:00:00
PU1XMG-162026-09-05 00:23:39-22.74665-42.5533692°88km/h16653m5.8m/s-75.0°C18.0%99.9hPa0V00:00:0000:00:0000:00:00
PU1XMG-162026-09-05 00:23:33-22.74670-42.5547487°84km/h16619m5.7m/s-75.1°C17.0%100.5hPa0V00:00:0000:00:0000:00:00
PU1XMG-162026-09-05 00:23:28-22.74681-42.5559385°95km/h16591m4.2m/s-75.5°C18.2%101.0hPa0V00:00:0000:00:0000:00:00
PU1XMG-162026-09-05 00:23:22-22.74694-42.5574484°91km/h16563m5.2m/s-75.9°C18.2%101.5hPa0V00:00:0000:00:0000:00:00
PU1XMG-162026-09-05 00:23:17-22.74709-42.5587284°97km/h16538m7.2m/s-76.5°C19.0%101.9hPa0V00:00:0000:00:0000:00:00
PU1XMG-162026-09-05 00:23:11-22.74733-42.5603080°100km/h16507m3.8m/s-76.6°C18.8%102.5hPa0V00:00:0000:00:0000:00:00
PU1XMG-162026-09-05 00:23:05-22.74763-42.5619181°102km/h16475m4.4m/s-76.7°C18.8%103.0hPa0V00:00:0000:00:0000:00:00
PU1XMG-162026-09-05 00:22:59-22.74795-42.5637278°117km/h16443m5.2m/s-76.8°C18.9%103.6hPa0V00:00:0000:00:0000:00:00
PU1XMG-162026-09-05 00:22:54-22.74830-42.5652076°110km/h16419m3.8m/s-76.8°C18.9%104.0hPa0V00:00:0000:00:0000:00:00
PU1XMG-162026-09-05 00:22:49-22.74860-42.5667280°117km/h16395m3.8m/s-76.6°C18.6%104.5hPa0V00:00:0000:00:0000:00:00
PU1XMG-162026-09-05 00:22:43-22.74897-42.5686377°117km/h16365m7.5m/s-76.5°C18.2%105.0hPa0V00:00:0000:00:0000:00:00
PU1XMG-162026-09-05 00:22:39-22.74924-42.5701884°115km/h16335m7.4m/s-76.4°C18.2%105.6hPa0V00:00:0000:00:0000:00:00
PU1XMG-162026-09-05 00:22:31-22.74948-42.5723480°110km/h16295m4.0m/s-76.1°C17.6%106.3hPa0V00:00:0000:00:0000:00:00
PU1XMG-162026-09-05 00:22:25-22.74971-42.5741285°111km/h16261m4.9m/s-75.8°C17.0%106.9hPa0V00:00:0000:00:0000:00:00
PU1XMG-162026-09-05 00:22:20-22.74989-42.5756883°113km/h16233m5.0m/s-75.7°C16.9%107.5hPa0V00:00:0000:00:0000:00:00
PU1XMG-162026-09-05 00:22:14-22.75007-42.5775086°108km/h16200m4.1m/s-75.4°C16.6%108.1hPa0V00:00:0000:00:0000:00:00
PU1XMG-162026-09-05 00:22:09-22.75017-42.5789888°113km/h16170m6.9m/s-75.2°C16.4%108.6hPa0V00:00:0000:00:0000:00:00
PU1XMG-162026-09-05 00:22:03-22.75021-42.5809290°115km/h16136m4.6m/s-74.9°C15.8%109.3hPa0V00:00:0000:00:0000:00:00
PU1XMG-162026-09-05 00:21:57-22.75029-42.5827690°111km/h16103m6.4m/s-74.6°C15.3%109.9hPa0V00:00:0000:00:0000:00:00
PU1XMG-162026-09-05 00:21:52-22.75027-42.5843491°119km/h16076m4.6m/s-74.4°C15.2%110.4hPa0V00:00:0000:00:0000:00:00
PU1XMG-162026-09-05 00:21:45-22.75036-42.5865689°113km/h16039m6.1m/s-74.1°C15.3%111.1hPa0V00:00:0000:00:0000:00:00
PU1XMG-162026-09-05 00:21:40-22.75036-42.5881191°117km/h16011m3.9m/s-73.8°C14.7%111.6hPa0V00:00:0000:00:0000:00:00
PU1XMG-162026-09-05 00:21:34-22.75034-42.5900394°119km/h15977m7.1m/s-73.6°C14.4%112.3hPa0V00:00:0000:00:0000:00:00
PU1XMG-162026-09-05 00:21:28-22.75025-42.5919792°115km/h15944m3.0m/s-73.3°C14.5%112.9hPa0V00:00:0000:00:0000:00:00
PU1XMG-162026-09-05 00:21:17-22.75025-42.5954491°117km/h15882m6.6m/s-72.7°C13.6%114.1hPa0V00:00:0000:00:0000:00:00
PU1XMG-162026-09-05 00:21:12-22.75025-42.5970390°115km/h15853m7.5m/s-72.4°C13.5%114.7hPa0V00:00:0000:00:0000:00:00
PU1XMG-162026-09-05 00:21:06-22.75026-42.5988992°117km/h15819m4.2m/s-72.1°C13.6%115.3hPa0V00:00:0000:00:0000:00:00
PU1XMG-162026-09-05 00:21:00-22.75019-42.6007793°111km/h15784m4.8m/s-71.8°C13.5%116.0hPa0V00:00:0000:00:0000:00:00
PU1XMG-162026-09-05 00:20:54-22.75023-42.6026290°117km/h15748m4.7m/s-71.5°C13.0%116.7hPa0V00:00:0000:00:0000:00:00
PU1XMG-162026-09-05 00:20:49-22.75029-42.6042390°117km/h15716m5.9m/s-71.2°C12.7%117.3hPa0V00:00:0000:00:0000:00:00
PU1XMG-162026-09-05 00:20:43-22.75033-42.6060589°106km/h15681m4.5m/s-71.0°C12.6%118.0hPa0V00:00:0000:00:0000:00:00
PU1XMG-162026-09-05 00:20:38-22.75039-42.6075189°113km/h15653m7.3m/s-70.7°C12.2%118.6hPa0V00:00:0000:00:0000:00:00
PU1XMG-162026-09-05 00:20:32-22.75043-42.6094189°113km/h15617m4.9m/s-70.5°C12.4%119.3hPa0V00:00:0000:00:0000:00:00
PU1XMG-162026-09-05 00:20:28-22.75046-42.6109289°110km/h15591m4.9m/s-70.3°C12.4%119.9hPa0V00:00:0000:00:0000:00:00
PU1XMG-162026-09-05 00:20:15-22.75044-42.6144689°106km/h15523m6.6m/s-70.0°C11.8%121.2hPa0V00:00:0000:00:0000:00:00
PU1XMG-162026-09-05 00:20:10-22.75047-42.6159391°110km/h15495m5.7m/s-70.0°C12.2%121.8hPa0V00:00:0000:00:0000:00:00
PU1XMG-162026-09-05 00:20:04-22.75047-42.6176189°95km/h15456m3.1m/s-69.8°C12.0%122.6hPa0V00:00:0000:00:0000:00:00
PU1XMG-162026-09-05 00:19:59-22.75056-42.6189086°99km/h15419m8.0m/s-69.6°C11.5%123.4hPa0V00:00:0000:00:0000:00:00
PU1XMG-162026-09-05 00:19:53-22.75059-42.6205689°104km/h15381m7.1m/s-69.3°C11.6%124.1hPa0V00:00:0000:00:0000:00:00
PU1XMG-162026-09-05 00:19:48-22.75067-42.6218886°88km/h15352m6.2m/s-69.1°C11.9%124.7hPa0V00:00:0000:00:0000:00:00
PU1XMG-162026-09-05 00:19:42-22.75082-42.6234485°104km/h15313m6.5m/s-68.8°C11.2%125.5hPa0V00:00:0000:00:0000:00:00
PU1XMG-162026-09-05 00:19:36-22.75100-42.6250382°95km/h15271m5.3m/s-68.4°C11.0%126.4hPa0V00:00:0000:00:0000:00:00
PU1XMG-162026-09-05 00:19:30-22.75119-42.6264881°91km/h15237m4.6m/s-68.1°C10.8%127.2hPa0V00:00:0000:00:0000:00:00
PU1XMG-162026-09-05 00:19:25-22.75138-42.6277380°97km/h15208m4.5m/s-67.9°C10.8%127.8hPa0V00:00:0000:00:0000:00:00
PU1XMG-162026-09-05 00:19:20-22.75165-42.6292182°88km/h15174m6.3m/s-67.6°C10.4%128.5hPa0V00:00:0000:00:0000:00:00
PU1XMG-162026-09-05 00:19:14-22.75181-42.6304381°93km/h15148m7.6m/s-67.4°C10.4%129.0hPa0V00:00:0000:00:0000:00:00
PU1XMG-162026-09-05 00:19:08-22.75213-42.6319480°91km/h15110m4.9m/s-67.1°C10.6%129.8hPa0V00:00:0000:00:0000:00:00
PU1XMG-162026-09-05 00:19:03-22.75229-42.6331783°91km/h15081m6.3m/s-67.0°C10.5%130.5hPa0V00:00:0000:00:0000:00:00
PU1XMG-162026-09-05 00:18:57-22.75264-42.6346175°89km/h15042m6.7m/s-67.0°C10.1%131.3hPa0V00:00:0000:00:0000:00:00
PU1XMG-162026-09-05 00:18:52-22.75288-42.6358780°93km/h15012m7.3m/s-67.2°C10.2%132.0hPa0V00:00:0000:00:0000:00:00
PU1XMG-162026-09-05 00:18:47-22.75324-42.6371072°102km/h14982m5.1m/s-67.1°C10.5%132.6hPa0V00:00:0000:00:0000:00:00
PU1XMG-162026-09-05 00:18:42-22.75365-42.6384075°99km/h14956m5.7m/s-67.1°C10.2%133.2hPa0V00:00:0000:00:0000:00:00
PU1XMG-162026-09-05 00:18:36-22.75410-42.6399269°97km/h14923m5.8m/s-67.2°C10.6%133.9hPa0V00:00:0000:00:0000:00:00
PU1XMG-162026-09-05 00:18:31-22.75458-42.6411667°100km/h14897m5.8m/s-67.2°C10.8%134.5hPa0V00:00:0000:00:0000:00:00
PU1XMG-162026-09-05 00:18:25-22.75515-42.6427273°104km/h14862m7.4m/s!°C10.9%135.2hPa0V00:00:0000:00:0000:00:00
PU1XMG-162026-09-05 00:18:20-22.75560-42.6441070°108km/h14830m7.5m/s-67.1°C10.7%135.9hPa0V00:00:0000:00:0000:00:00
PU1XMG-162026-09-05 00:18:15-22.75606-42.6454472°100km/h14799m6.3m/s-66.9°C10.5%136.7hPa0V00:00:0000:00:0000:00:00
PU1XMG-162026-09-05 00:18:10-22.75648-42.6467370°102km/h14767m5.8m/s-66.9°C10.6%137.4hPa0V00:00:0000:00:0000:00:00
PU1XMG-162026-09-05 00:18:03-22.75708-42.6486072°104km/h14726m6.6m/s-66.6°C10.3%138.3hPa0V00:00:0000:00:0000:00:00
PU1XMG-162026-09-05 00:17:57-22.75768-42.6502368°110km/h14688m4.0m/s-66.3°C10.4%139.2hPa0V00:00:0000:00:0000:00:00
PU1XMG-162026-09-05 00:17:50-22.75838-42.6521773°106km/h14644m4.8m/s-66.0°C10.3%140.2hPa0V00:00:0000:00:0000:00:00
PU1XMG-162026-09-05 00:17:44-22.75888-42.6538170°104km/h14612m5.6m/s-65.7°C10.4%141.0hPa0V00:00:0000:00:0000:00:00
PU1XMG-162026-09-05 00:17:39-22.75937-42.6551269°104km/h14579m3.4m/s-65.5°C10.5%141.8hPa0V00:00:0000:00:0000:00:00
PU1XMG-162026-09-05 00:17:33-22.75991-42.6567071°104km/h14543m7.9m/s-65.4°C10.5%142.6hPa0V00:00:0000:00:0000:00:00
PU1XMG-162026-09-05 00:17:26-22.76055-42.6586269°108km/h14498m4.2m/s-65.1°C10.6%143.7hPa0V00:00:0000:00:0000:00:00
PU1XMG-162026-09-05 00:17:20-22.76113-42.6602068°102km/h14460m9.6m/s-65.0°C10.9%144.5hPa0V00:00:0000:00:0000:00:00
PU1XMG-162026-09-05 00:17:15-22.76164-42.6615169°106km/h14427m8.2m/s-64.7°C11.1%145.3hPa0V00:00:0000:00:0000:00:00
PU1XMG-162026-09-05 00:17:09-22.76233-42.6633670°102km/h14382m8.9m/s-64.4°C10.9%146.4hPa0V00:00:0000:00:0000:00:00
PU1XMG-162026-09-05 00:16:45-22.76471-42.6694667°104km/h14234m7.0m/s-63.3°C11.1%149.9hPa0V00:00:0000:00:0000:00:00
PU1XMG-162026-09-05 00:16:39-22.76539-42.6710370°108km/h14196m7.1m/s-63.1°C11.4%150.8hPa0V00:00:0000:00:0000:00:00
PU1XMG-162026-09-05 00:16:33-22.76594-42.6727073°108km/h14157m6.1m/s-63.0°C11.7%151.8hPa0V00:00:0000:00:0000:00:00
PU1XMG-162026-09-05 00:16:25-22.76671-42.6749768°113km/h14110m8.2m/s-63.1°C12.2%153.0hPa0V00:00:0000:00:0000:00:00
PU1XMG-162026-09-05 00:16:19-22.76747-42.6769570°113km/h14067m5.7m/s-63.2°C12.7%154.1hPa0V00:00:0000:00:0000:00:00
PU1XMG-162026-09-05 00:16:12-22.76816-42.6786565°113km/h14035m6.3m/s-63.2°C13.4%154.9hPa0V00:00:0000:00:0000:00:00
PU1XMG-162026-09-05 00:16:06-22.76889-42.6803767°115km/h14004m4.6m/s-63.0°C13.4%155.6hPa0V00:00:0000:00:0000:00:00
PU1XMG-162026-09-05 00:16:01-22.76948-42.6818568°120km/h13974m4.7m/s-62.9°C13.8%156.3hPa0V00:00:0000:00:0000:00:00
PU1XMG-162026-09-05 00:15:56-22.77012-42.6833367°117km/h13949m3.8m/s-62.8°C13.9%157.0hPa0V00:00:0000:00:0000:00:00
PU1XMG-162026-09-05 00:15:50-22.77082-42.6850769°115km/h13918m6.7m/s-62.8°C14.0%157.8hPa0V00:00:0000:00:0000:00:00
PU1XMG-162026-09-05 00:15:43-22.77160-42.6871868°122km/h13880m4.0m/s-62.5°C14.1%158.8hPa0V00:00:0000:00:0000:00:00
PU1XMG-162026-09-05 00:15:37-22.77226-42.6890271°119km/h13847m5.2m/s-62.3°C14.2%159.6hPa0V00:00:0000:00:0000:00:00
PU1XMG-162026-09-05 00:15:31-22.77286-42.6908271°119km/h13814m7.8m/s-62.1°C14.2%160.5hPa0V00:00:0000:00:0000:00:00
PU1XMG-162026-09-05 00:15:22-22.77382-42.6934971°106km/h13765m6.5m/s-62.0°C14.4%161.7hPa0V00:00:0000:00:0000:00:00
PU1XMG-162026-09-05 00:15:17-22.77424-42.6949674°115km/h13737m4.2m/s-62.0°C15.1%162.5hPa0V00:00:0000:00:0000:00:00
PU1XMG-162026-09-05 00:15:11-22.77485-42.6968775°120km/h13706m4.8m/s-61.9°C14.3%163.3hPa0V00:00:0000:00:0000:00:00
PU1XMG-162026-09-05 00:15:06-22.77524-42.6984578°117km/h13670m3.9m/s-61.7°C14.6%164.2hPa0V00:00:0000:00:0000:00:00
PU1XMG-162026-09-05 00:15:00-22.77571-42.7002975°119km/h13641m5.7m/s-61.5°C14.4%165.0hPa0V00:00:0000:00:0000:00:00
PU1XMG-162026-09-05 00:14:54-22.77618-42.7022378°124km/h13607m6.2m/s-61.2°C14.3%165.9hPa0V00:00:0000:00:0000:00:00
PU1XMG-162026-09-05 00:14:47-22.77670-42.7044676°117km/h13572m6.7m/s-60.9°C13.8%166.9hPa0V00:00:0000:00:0000:00:00
PU1XMG-162026-09-05 00:14:41-22.77722-42.7063677°124km/h13537m7.2m/s-60.6°C13.3%167.7hPa0V00:00:0000:00:0000:00:00
PU1XMG-162026-09-05 00:14:35-22.77760-42.7083579°126km/h13504m6.0m/s-60.2°C13.4%168.6hPa0V00:00:0000:00:0000:00:00
PU1XMG-162026-09-05 00:14:29-22.77806-42.7102877°122km/h13472m3.5m/s-60.0°C13.3%169.5hPa0V00:00:0000:00:0000:00:00
PU1XMG-162026-09-05 00:14:24-22.77841-42.7118679°117km/h13444m6.5m/s-59.7°C13.0%170.2hPa0V00:00:0000:00:0000:00:00
PU1XMG-162026-09-05 00:14:18-22.77882-42.7138378°130km/h13411m6.0m/s-59.4°C12.4%171.2hPa0V00:00:0000:00:0000:00:00
PU1XMG-162026-09-05 00:14:12-22.77930-42.7158277°120km/h13379m5.5m/s-59.1°C12.3%172.1hPa0V00:00:0000:00:0000:00:00
PU1XMG-162026-09-05 00:14:06-22.77972-42.7177378°122km/h13345m4.8m/s-58.8°C12.1%173.0hPa0V00:00:0000:00:0000:00:00
PU1XMG-162026-09-05 00:14:00-22.78011-42.7197178°122km/h13312m6.6m/s-58.5°C11.9%173.9hPa0V00:00:0000:00:0000:00:00
PU1XMG-162026-09-05 00:13:54-22.78052-42.7216778°120km/h13280m4.9m/s-58.2°C11.8%174.8hPa0V00:00:0000:00:0000:00:00
PU1XMG-162026-09-05 00:13:49-22.78087-42.7232778°122km/h13253m6.2m/s-57.9°C11.7%175.5hPa0V00:00:0000:00:0000:00:00
PU1XMG-162026-09-05 00:13:43-22.78124-42.7252580°122km/h13219m6.6m/s-57.6°C11.4%176.5hPa0V00:00:0000:00:0000:00:00
PU1XMG-162026-09-05 00:13:37-22.78162-42.7272078°120km/h13185m6.1m/s-57.3°C11.0%177.4hPa0V00:00:0000:00:0000:00:00
PU1XMG-162026-09-05 00:13:31-22.78202-42.7291881°124km/h13152m5.1m/s-57.1°C11.1%178.3hPa0V00:00:0000:00:0000:00:00
PU1XMG-162026-09-05 00:13:25-22.78235-42.7310979°117km/h13119m4.6m/s-56.8°C10.8%179.3hPa0V00:00:0000:00:0000:00:00
PU1XMG-162026-09-05 00:13:18-22.78277-42.7334281°124km/h13081m5.0m/s-56.5°C10.5%180.4hPa0V00:00:0000:00:0000:00:00
PU1XMG-162026-09-05 00:13:13-22.78305-42.7350380°119km/h13055m3.8m/s-56.2°C10.3%181.1hPa0V00:00:0000:00:0000:00:00
PU1XMG-162026-09-05 00:13:07-22.78339-42.7369581°122km/h13022m4.4m/s-55.9°C10.0%182.0hPa0V00:00:0000:00:0000:00:00
PU1XMG-162026-09-05 00:13:00-22.78374-42.7392883°122km/h12984m5.7m/s-55.6°C9.8%183.1hPa0V00:00:0000:00:0000:00:00
PU1XMG-162026-09-05 00:12:55-22.78397-42.7409382°126km/h12958m5.2m/s-55.3°C9.6%183.9hPa0V00:00:0000:00:0000:00:00
PU1XMG-162026-09-05 00:12:50-22.78423-42.7425881°119km/h12929m6.1m/s-55.1°C9.5%184.7hPa0V00:00:0000:00:0000:00:00
PU1XMG-162026-09-05 00:12:45-22.78447-42.7442283°122km/h12903m4.3m/s-54.9°C9.7%185.4hPa0V00:00:0000:00:0000:00:00
PU1XMG-162026-09-05 00:12:40-22.78469-42.7458983°122km/h12877m6.2m/s-54.8°C9.8%186.1hPa0V00:00:0000:00:0000:00:00
PU1XMG-162026-09-05 00:12:34-22.78499-42.7478080°115km/h12845m5.6m/s-54.5°C10.0%187.1hPa0V00:00:0000:00:0000:00:00
PU1XMG-162026-09-05 00:12:28-22.78540-42.7497979°124km/h12811m8.5m/s-54.2°C9.7%188.0hPa0V00:00:0000:00:0000:00:00
PU1XMG-162026-09-05 00:10:16-22.78436-42.7943598°124km/h12097m5.1m/s-49.5°C8.4%209.9hPa0V00:00:0000:00:0000:00:00
PU1XMG-162026-09-05 00:10:05-22.78384-42.79804100°119km/h12040m6.2m/s-49.3°C8.9%211.7hPa0V00:00:0000:00:0000:00:00
PU1XMG-162026-09-05 00:09:56-22.78338-42.8012199°117km/h11996m4.7m/s-49.0°C9.2%213.2hPa0V00:00:0000:00:0000:00:00
PU1XMG-162026-09-05 00:09:42-22.78276-42.8054199°119km/h11934m5.8m/s-48.8°C9.8%215.2hPa0V00:00:0000:00:0000:00:00
PU1XMG-162026-09-05 00:09:29-22.78205-42.80964100°119km/h11866m5.0m/s-48.4°C10.2%217.5hPa0V00:00:0000:00:0000:00:00
PU1XMG-162026-09-05 00:09:24-22.78179-42.81125102°119km/h11844m4.5m/s-48.2°C10.0%218.1hPa0V00:00:0000:00:0000:00:00
PU1XMG-162026-09-05 00:09:19-22.78147-42.81316100°120km/h11814m3.9m/s-47.9°C10.1%219.1hPa0V00:00:0000:00:0000:00:00
PU1XMG-162026-09-05 00:09:13-22.78119-42.81477102°119km/h11791m4.3m/s-47.7°C10.0%219.9hPa0V00:00:0000:00:0000:00:00
PU1XMG-162026-09-05 00:09:01-22.78062-42.81863100°120km/h11734m4.3m/s-47.3°C10.1%221.7hPa0V00:00:0000:00:0000:00:00
PU1XMG-162026-09-05 00:08:52-22.78016-42.8215698°117km/h11695m4.6m/s-46.9°C10.0%223.0hPa0V00:00:0000:00:0000:00:00
PU1XMG-162026-09-05 00:08:45-22.77983-42.82379102°120km/h11661m5.3m/s-46.6°C10.0%224.1hPa0V00:00:0000:00:0000:00:00
PU1XMG-162026-09-05 00:08:37-22.77956-42.8264294°119km/h11622m6.0m/s-46.3°C10.3%225.5hPa0V00:00:0000:00:0000:00:00
PU1XMG-162026-09-05 00:08:32-22.77939-42.8280499°122km/h11600m3.7m/s-46.1°C10.1%226.2hPa0V00:00:0000:00:0000:00:00
PU1XMG-162026-09-05 00:08:27-22.77920-42.8296998°120km/h11579m3.5m/s-45.9°C10.1%226.9hPa0V00:00:0000:00:0000:00:00
PU1XMG-162026-09-05 00:08:21-22.77901-42.8316596°120km/h11555m5.9m/s-45.7°C10.0%227.8hPa0V00:00:0000:00:0000:00:00
PU1XMG-162026-09-05 00:08:18-22.77881-42.8336198°117km/h11528m3.6m/s-45.4°C9.8%228.7hPa0V00:00:0000:00:0000:00:00
PU1XMG-162026-09-05 00:08:17-22.77858-42.8355898°124km/h11503m3.3m/s-45.2°C9.7%229.6hPa0V00:00:0000:00:0000:00:00
PU1XMG-162026-09-05 00:07:08-22.77765-42.8558592°130km/h11206m10.3m/s-42.6°C8.1%239.9hPa0V00:00:0000:00:0000:00:00
PU1XMG-162026-09-05 00:07:00-22.77771-42.8585991°128km/h11158m5.8m/s-42.3°C8.2%241.6hPa0V00:00:0000:00:0000:00:00
PU1XMG-162026-09-05 00:06:47-22.77781-42.8630788°124km/h11091m5.3m/s-41.7°C8.1%244.0hPa0V00:00:0000:00:0000:00:00
PU1XMG-162026-09-05 00:06:39-22.77793-42.8658087°126km/h11054m6.1m/s-41.4°C8.0%245.3hPa0V00:00:0000:00:0000:00:00
PU1XMG-162026-09-05 00:06:34-22.77805-42.8675687°131km/h11031m6.3m/s-41.2°C7.9%246.2hPa0V00:00:0000:00:0000:00:00
PU1XMG-162026-09-05 00:06:28-22.77822-42.8696385°122km/h11000m5.3m/s-41.0°C8.2%247.2hPa0V00:00:0000:00:0000:00:00
PU1XMG-162026-09-05 00:06:23-22.77836-42.8713487°130km/h10978m6.2m/s-40.8°C8.0%248.0hPa0V00:00:0000:00:0000:00:00
PU1XMG-162026-09-05 00:06:17-22.77847-42.8734287°122km/h10948m5.2m/s-40.5°C7.8%249.2hPa0V00:00:0000:00:0000:00:00
PU1XMG-162026-09-05 00:06:12-22.77860-42.8751585°133km/h10921m3.6m/s-40.3°C7.6%250.2hPa0V00:00:0000:00:0000:00:00
PU1XMG-162026-09-05 00:06:05-22.77882-42.8776486°128km/h10891m3.5m/s-40.0°C7.6%251.3hPa0V00:00:0000:00:0000:00:00
PU1XMG-162026-09-05 00:06:00-22.77897-42.8793487°120km/h10869m4.6m/s-39.8°C7.2%252.0hPa0V00:00:0000:00:0000:00:00
PU1XMG-162026-09-05 00:05:52-22.77917-42.8820788°130km/h10832m2.0m/s-39.4°C6.9%253.4hPa0V00:00:0000:00:0000:00:00
PU1XMG-162026-09-05 00:05:46-22.77929-42.8841386°124km/h10804m5.5m/s-39.2°C6.9%254.4hPa0V00:00:0000:00:0000:00:00
PU1XMG-162026-09-05 00:05:40-22.77949-42.8861885°128km/h10778m4.8m/s-38.9°C6.8%255.5hPa0V00:00:0000:00:0000:00:00
PU1XMG-162026-09-05 00:05:33-22.77968-42.8886086°124km/h10744m5.5m/s-38.6°C6.6%256.7hPa0V00:00:0000:00:0000:00:00
PU1XMG-162026-09-05 00:05:28-22.77984-42.8902883°124km/h10718m4.2m/s-38.4°C6.5%257.7hPa0V00:00:0000:00:0000:00:00
PU1XMG-162026-09-05 00:05:22-22.78008-42.8923186°124km/h10689m3.7m/s-38.1°C6.4%258.8hPa0V00:00:0000:00:0000:00:00
PU1XMG-162026-09-05 00:05:14-22.78032-42.8950282°126km/h10650m5.9m/s-37.7°C6.1%260.2hPa0V00:00:0000:00:0000:00:00
PU1XMG-162026-09-05 00:05:00-22.78090-42.8997785°131km/h10582m4.7m/s-37.1°C5.9%262.8hPa0V00:00:0000:00:0000:00:00
PU1XMG-162026-09-05 00:04:54-22.78107-42.9018685°126km/h10556m5.6m/s-36.9°C5.9%263.8hPa0V00:00:0000:00:0000:00:00
PU1XMG-162026-09-05 00:04:47-22.78135-42.9046485°122km/h10516m5.7m/s-36.5°C5.8%265.4hPa0V00:00:0000:00:0000:00:00
PU1XMG-162026-09-05 00:03:31-22.78300-42.9314787°135km/h10143m6.9m/s-34.4°C46.5%280.0hPa0V00:00:0000:00:0000:00:00
PU1XMG-162026-09-05 00:03:25-22.78307-42.9337391°144km/h10112m7.2m/s-34.2°C48.7%281.2hPa0V00:00:0000:00:0000:00:00
PU1XMG-162026-09-05 00:03:01-22.78318-42.9449292°120km/h9926m7.7m/s-32.6°C51.2%288.7hPa0V00:00:0000:00:0000:00:00
PU1XMG-162026-09-05 00:02:52-22.78316-42.9466593°133km/h9900m4.9m/s-32.4°C52.4%289.7hPa0V00:00:0000:00:0000:00:00
PU1XMG-162026-09-05 00:02:42-22.78301-42.9501793°128km/h9848m7.3m/s-31.9°C51.1%291.8hPa0V00:00:0000:00:0000:00:00
PU1XMG-162026-09-05 00:02:33-22.78288-42.9523093°137km/h9814m5.1m/s-31.6°C50.3%293.3hPa0V00:00:0000:00:0000:00:00
PU1XMG-162026-09-05 00:02:28-22.78283-42.9541794°130km/h9785m6.9m/s-31.3°C50.8%294.4hPa0V00:00:0000:00:0000:00:00
PU1XMG-162026-09-05 00:02:23-22.78271-42.9563094°131km/h9752m6.7m/s-31.0°C51.4%295.9hPa0V00:00:0000:00:0000:00:00
PU1XMG-162026-09-05 00:02:19-22.78268-42.9581394°137km/h9726m5.1m/s-30.8°C51.7%296.9hPa0V00:00:0000:00:0000:00:00
PU1XMG-162026-09-05 00:02:15-22.78258-42.9599794°131km/h9699m5.8m/s-30.6°C50.7%298.0hPa0V00:00:0000:00:0000:00:00
PU1XMG-162026-09-05 00:02:10-22.78247-42.9621396°135km/h9669m5.6m/s-30.3°C49.3%299.3hPa0V00:00:0000:00:0000:00:00
PU1XMG-162026-09-05 00:02:01-22.78219-42.9658393°137km/h9618m9.7m/s-30.0°C46.5%301.4hPa0V00:00:0000:00:0000:00:00
PU1XMG-162026-09-05 00:01:53-22.78212-42.9681390°142km/h9583m6.6m/s-29.6°C45.1%302.9hPa0V00:00:0000:00:0000:00:00
PU1XMG-162026-09-05 00:01:46-22.78209-42.9701293°144km/h9552m6.3m/s-29.4°C44.9%304.2hPa0V00:00:0000:00:0000:00:00
PU1XMG-162026-09-05 00:01:41-22.78198-42.9724395°146km/h9517m7.2m/s-29.1°C44.0%305.7hPa0V00:00:0000:00:0000:00:00
PU1XMG-162026-09-05 00:01:37-22.78198-42.9749094°142km/h9479m6.6m/s-28.8°C43.0%307.2hPa0V00:00:0000:00:0000:00:00
PU1XMG-162026-09-05 00:01:30-22.78186-42.9772092°151km/h9446m3.8m/s-28.6°C44.7%308.8hPa0V00:00:0000:00:0000:00:00
PU1XMG-162026-09-05 00:01:24-22.78186-42.9796292°141km/h9404m8.3m/s-28.4°C43.8%310.5hPa0V00:00:0000:00:0000:00:00
PU1XMG-162026-09-05 00:01:17-22.78193-42.9819189°137km/h9374m5.4m/s-28.1°C44.8%311.9hPa0V00:00:0000:00:0000:00:00
PU1XMG-162026-09-05 00:01:12-22.78197-42.9838091°141km/h9349m6.3m/s-28.1°C49.3%313.0hPa0V00:00:0000:00:0000:00:00
PU1XMG-162026-09-05 00:01:07-22.78197-42.9857490°142km/h9323m6.0m/s-27.9°C46.6%314.1hPa0V00:00:0000:00:0000:00:00
PU1XMG-162026-09-05 00:00:59-22.78202-42.9880690°139km/h9291m5.4m/s-27.7°C46.0%315.5hPa0V00:00:0000:00:0000:00:00
PU1XMG-162026-09-05 00:00:54-22.78209-42.9899988°142km/h9267m5.6m/s-27.6°C50.4%316.5hPa0V00:00:0000:00:0000:00:00
PU1XMG-162026-09-05 00:00:48-22.78216-42.9923390°144km/h9233m3.1m/s-27.6°C53.6%318.1hPa0V00:00:0000:00:0000:00:00
PU1XMG-162026-09-05 00:00:43-22.78222-42.9946688°139km/h9203m6.4m/s-27.4°C54.1%319.3hPa0V00:00:0000:00:0000:00:00
PU1XMG-162026-09-05 00:00:39-22.78228-42.9965690°141km/h9178m5.7m/s-27.3°C53.2%320.4hPa0V00:00:0000:00:0000:00:00
PU1XMG-162026-09-05 00:00:35-22.78230-42.9984990°142km/h9151m5.7m/s-27.0°C52.8%321.7hPa0V00:00:0000:00:0000:00:00
PU1XMG-162026-09-05 00:00:26-22.78242-43.0008288°141km/h9120m6.1m/s-26.8°C53.8%323.0hPa0V00:00:0000:00:0000:00:00
PU1XMG-162026-09-05 00:00:22-22.78252-43.0027688°141km/h9092m5.2m/s-26.6°C54.6%324.2hPa0V00:00:0000:00:0000:00:00
PU1XMG-162026-09-05 00:00:19-22.78260-43.0046988°142km/h9066m6.8m/s-26.4°C55.3%325.5hPa0V00:00:0000:00:0000:00:00
PU1XMG-162026-09-05 00:00:11-22.78269-43.0066588°142km/h9041m6.3m/s-26.2°C57.1%326.6hPa0V00:00:0000:00:0000:00:00
PU1XMG-162026-09-05 00:00:05-22.78284-43.0089787°142km/h9009m6.3m/s-26.0°C56.3%328.0hPa0V00:00:0000:00:0000:00:00
PU1XMG-162026-09-05 00:00:00-22.78294-43.0109089°137km/h8981m6.4m/s-25.8°C56.8%329.3hPa0V00:00:0000:00:0000:00:00
PU1XMG-162026-09-04 23:59:54-22.78301-43.0127988°139km/h8956m4.8m/s-25.5°C56.6%330.3hPa0V00:00:0000:00:0000:00:00
PU1XMG-162026-09-04 23:59:49-22.78316-43.0147587°142km/h8930m3.5m/s-25.3°C55.8%331.6hPa0V00:00:0000:00:0000:00:00
PU1XMG-162026-09-04 23:59:43-22.78329-43.0171088°139km/h8902m4.2m/s-25.0°C54.3%332.9hPa0V00:00:0000:00:0000:00:00
PU1XMG-162026-09-04 23:59:39-22.78338-43.0190287°141km/h8877m6.0m/s-24.8°C52.9%334.1hPa0V00:00:0000:00:0000:00:00
PU1XMG-162026-09-04 23:59:32-22.78357-43.0212588°141km/h8848m6.1m/s-24.5°C51.9%335.5hPa0V00:00:0000:00:0000:00:00
PU1XMG-162026-09-04 23:59:26-22.78353-43.0235393°137km/h8815m5.8m/s-24.2°C50.1%337.0hPa0V00:00:0000:00:0000:00:00
PU1XMG-162026-09-04 23:59:21-22.78362-43.0258483°133km/h8776m6.2m/s-23.8°C47.9%338.8hPa0V00:00:0000:00:0000:00:00
PU1XMG-162026-09-04 23:59:15-22.78376-43.0276288°141km/h8749m6.1m/s-23.6°C45.4%340.0hPa0V00:00:0000:00:0000:00:00
PU1XMG-162026-09-04 23:59:04-22.78405-43.0319988°128km/h8690m5.3m/s-23.1°C35.6%342.8hPa0V00:00:0000:00:0000:00:00
PU1XMG-162026-09-04 23:58:58-22.78418-43.0343886°141km/h8651m7.1m/s-22.7°C32.8%344.6hPa0V00:00:0000:00:0000:00:00
PU1XMG-162026-09-04 23:58:52-22.78442-43.0365684°133km/h8614m7.0m/s-22.4°C29.9%346.2hPa0V00:00:0000:00:0000:00:00
PU1XMG-162026-09-04 23:58:47-22.78473-43.0385082°146km/h8591m5.3m/s-22.2°C25.1%347.5hPa0V00:00:0000:00:0000:00:00
PU1XMG-162026-09-04 23:58:42-22.78492-43.0404389°141km/h8560m3.9m/s-21.9°C22.2%348.8hPa0V00:00:0000:00:0000:00:00
PU1XMG-162026-09-04 23:58:36-22.78512-43.0427583°141km/h8524m7.4m/s-21.5°C20.8%350.6hPa0V00:00:0000:00:0000:00:00
PU1XMG-162026-09-04 23:58:30-22.78544-43.0450282°137km/h8487m5.9m/s-21.2°C19.4%352.2hPa0V00:00:0000:00:0000:00:00
PU1XMG-162026-09-04 23:58:26-22.78568-43.0469085°141km/h8464m4.2m/s-21.0°C15.7%353.3hPa0V00:00:0000:00:0000:00:00
PU1XMG-162026-09-04 23:58:19-22.78597-43.0492081°141km/h8437m3.4m/s-20.7°C16.9%354.7hPa0V00:00:0000:00:0000:00:00
PU1XMG-162026-09-04 23:58:15-22.78630-43.0511080°141km/h8411m6.0m/s-20.5°C17.6%355.9hPa0V00:00:0000:00:0000:00:00
PU1XMG-162026-09-04 23:58:08-22.78671-43.0533980°146km/h8379m7.1m/s-20.2°C11.6%357.4hPa0V00:00:0000:00:0000:00:00
PU1XMG-162026-09-04 23:58:02-22.78706-43.0557584°146km/h8346m6.3m/s-19.9°C8.1%358.9hPa0V00:00:0000:00:0000:00:00
PU1XMG-162026-09-04 23:57:57-22.78736-43.0577380°144km/h8326m4.3m/s-19.9°C7.6%360.0hPa0V00:00:0000:00:0000:00:00
PU1XMG-162026-09-04 23:57:52-22.78769-43.0596482°135km/h8304m5.1m/s-20.1°C6.9%361.0hPa0V00:00:0000:00:0000:00:00
PU1XMG-162026-09-04 23:57:46-22.78798-43.0619082°142km/h8278m4.8m/s-20.1°C6.4%362.3hPa0V00:00:0000:00:0000:00:00
PU1XMG-162026-09-04 23:57:40-22.78838-43.0642582°142km/h8254m4.0m/s-20.6°C9.3%363.5hPa0V00:00:0000:00:0000:00:00
PU1XMG-162026-09-04 23:57:35-22.78871-43.0660976°139km/h8229m3.2m/s-20.7°C16.0%364.7hPa0V00:00:0000:00:0000:00:00
PU1XMG-162026-09-04 23:57:30-22.78912-43.0680080°150km/h8209m6.8m/s-20.7°C20.1%365.7hPa0V00:00:0000:00:0000:00:00
PU1XMG-162026-09-04 23:57:24-22.78968-43.0703174°139km/h8178m6.4m/s-20.3°C19.8%367.3hPa0V00:00:0000:00:0000:00:00
PU1XMG-162026-09-04 23:57:18-22.79036-43.0724874°144km/h8150m6.9m/s-20.2°C23.9%368.7hPa0V00:00:0000:00:0000:00:00
PU1XMG-162026-09-04 23:57:14-22.79081-43.0744077°128km/h8122m6.9m/s-20.0°C25.7%370.3hPa0V00:00:0000:00:0000:00:00
PU1XMG-162026-09-04 23:57:08-22.79109-43.0759982°119km/h8087m5.3m/s-19.7°C26.7%372.0hPa0V00:00:0000:00:0000:00:00
PU1XMG-162026-09-04 23:57:02-22.79146-43.0781176°130km/h8051m5.9m/s-19.6°C30.5%373.5hPa0V00:00:0000:00:0000:00:00
PU1XMG-162026-09-04 23:56:56-22.79185-43.0802584°128km/h8022m5.8m/s-19.9°C38.6%375.0hPa0V00:00:0000:00:0000:00:00
PU1XMG-162026-09-04 23:56:52-22.79209-43.0817581°113km/h7989m3.7m/s-20.1°C44.9%376.7hPa0V00:00:0000:00:0000:00:00
PU1XMG-162026-09-04 23:56:45-22.79235-43.0836982°113km/h7957m6.6m/s-20.2°C49.1%378.2hPa0V00:00:0000:00:0000:00:00
PU1XMG-162026-09-04 23:56:40-22.79247-43.0851989°104km/h7935m4.2m/s-20.0°C47.9%379.4hPa0V00:00:0000:00:0000:00:00
PU1XMG-162026-09-04 23:56:35-22.79279-43.0866273°117km/h7907m9.6m/s-19.9°C47.7%380.9hPa0V00:00:0000:00:0000:00:00
PU1XMG-162026-09-04 23:56:30-22.79313-43.0880783°102km/h7875m4.5m/s-20.0°C49.3%382.4hPa0V00:00:0000:00:0000:00:00
PU1XMG-162026-09-04 23:56:24-22.79348-43.0898579°108km/h7835m9.1m/s-20.2°C57.1%384.5hPa0V00:00:0000:00:0000:00:00
PU1XMG-162026-09-04 23:56:19-22.79378-43.0913676°124km/h7807m7.1m/s-20.3°C61.3%385.9hPa0V00:00:0000:00:0000:00:00
PU1XMG-162026-09-04 23:56:13-22.79435-43.0932872°111km/h7775m4.8m/s-20.0°C60.3%387.6hPa0V00:00:0000:00:0000:00:00
PU1XMG-162026-09-04 23:56:08-22.79484-43.0947573°119km/h7748m4.8m/s-19.8°C60.0%389.0hPa0V00:00:0000:00:0000:00:00
PU1XMG-162026-09-04 23:56:02-22.79536-43.0966873°120km/h7717m3.9m/s-19.5°C59.7%390.5hPa0V00:00:0000:00:0000:00:00
PU1XMG-162026-09-04 23:55:57-22.79586-43.0981673°111km/h7693m3.4m/s-19.3°C58.6%391.8hPa0V00:00:0000:00:0000:00:00
PU1XMG-162026-09-04 23:55:51-22.79640-43.1001275°133km/h7665m6.2m/s-19.1°C58.3%393.3hPa0V00:00:0000:00:0000:00:00
PU1XMG-162026-09-04 23:55:46-22.79683-43.1017974°122km/h7640m7.1m/s-18.8°C57.9%394.7hPa0V00:00:0000:00:0000:00:00
PU1XMG-162026-09-04 23:55:40-22.79738-43.1037272°117km/h7605m5.7m/s-18.5°C57.7%396.6hPa0V00:00:0000:00:0000:00:00
PU1XMG-162026-09-04 23:55:35-22.79786-43.1052272°124km/h7582m6.0m/s-18.4°C58.8%397.8hPa0V00:00:0000:00:0000:00:00
PU1XMG-162026-09-04 23:55:29-22.79846-43.1071769°124km/h7545m7.4m/s-18.2°C59.6%399.7hPa0V00:00:0000:00:0000:00:00
PU1XMG-162026-09-04 23:55:23-22.79909-43.1090476°119km/h7511m5.6m/s-18.2°C64.9%401.4hPa0V00:00:0000:00:0000:00:00
PU1XMG-162026-09-04 23:55:19-22.79946-43.1109776°115km/h7480m6.8m/s-18.4°C72.8%403.1hPa0V00:00:0000:00:0000:00:00
PU1XMG-162026-09-04 23:55:13-22.79983-43.1125182°120km/h7454m4.6m/s-18.3°C74.1%404.6hPa0V00:00:0000:00:0000:00:00
PU1XMG-162026-09-04 23:55:06-22.80016-43.1143776°110km/h7422m6.1m/s-18.2°C72.9%406.4hPa0V00:00:0000:00:0000:00:00
PU1XMG-162026-09-04 23:55:01-22.80054-43.1158781°113km/h7390m7.6m/s-18.1°C77.5%407.9hPa0V00:00:0000:00:0000:00:00
PU1XMG-162026-09-04 23:54:55-22.80093-43.1176574°106km/h7359m7.4m/s-18.0°C82.7%409.6hPa0V00:00:0000:00:0000:00:00
PU1XMG-162026-09-04 23:54:50-22.80128-43.1190676°111km/h7334m5.8m/s-18.2°C88.2%411.1hPa0V00:00:0000:00:0000:00:00
PU1XMG-162026-09-04 23:54:45-22.80181-43.1209072°117km/h7305m5.8m/s-17.9°C86.0%412.7hPa0V00:00:0000:00:0000:00:00
PU1XMG-162026-09-04 23:54:39-22.80215-43.1223381°102km/h7280m5.3m/s-17.9°C86.2%414.1hPa0V00:00:0000:00:0000:00:00
PU1XMG-162026-09-04 23:54:34-22.80249-43.1237275°108km/h7255m6.6m/s-17.6°C85.0%415.6hPa0V00:00:0000:00:0000:00:00
PU1XMG-162026-09-04 23:54:29-22.80281-43.1252477°110km/h7229m3.7m/s-17.4°C85.4%416.9hPa0V00:00:0000:00:0000:00:00
PU1XMG-162026-09-04 23:54:23-22.80333-43.1269770°117km/h7191m7.1m/s-17.1°C82.6%419.0hPa0V00:00:0000:00:0000:00:00
PU1XMG-162026-09-04 23:54:17-22.80378-43.1286178°91km/h7160m6.8m/s-16.9°C83.6%420.7hPa0V00:00:0000:00:0000:00:00
PU1XMG-162026-09-04 23:54:12-22.80412-43.1298875°110km/h7134m7.2m/s-16.7°C85.3%422.3hPa0V00:00:0000:00:0000:00:00
PU1XMG-162026-09-04 23:54:07-22.80458-43.1312974°100km/h7101m7.2m/s-16.4°C83.1%424.1hPa0V00:00:0000:00:0000:00:00
PU1XMG-162026-09-04 23:54:01-22.80507-43.1329968°104km/h7057m8.1m/s-16.0°C80.7%426.4hPa0V00:00:0000:00:0000:00:00
PU1XMG-162026-09-04 23:53:55-22.80573-43.1346367°106km/h7025m4.7m/s-15.8°C78.0%428.4hPa0V00:00:0000:00:0000:00:00
PU1XMG-162026-09-04 23:53:50-22.80621-43.1359468°111km/h6996m4.8m/s-15.7°C75.0%430.0hPa0V00:00:0000:00:0000:00:00
PU1XMG-162026-09-04 23:53:45-22.80670-43.1372769°93km/h6967m11.1m/s-15.4°C70.7%431.5hPa0V00:00:0000:00:0000:00:00
PU1XMG-162026-09-04 23:53:39-22.80728-43.1387772°104km/h6923m6.2m/s-15.1°C66.5%434.1hPa0V00:00:0000:00:0000:00:00
PU1XMG-162026-09-04 23:53:33-22.80784-43.1404173°110km/h6895m4.9m/s-14.9°C63.6%435.7hPa0V00:00:0000:00:0000:00:00
PU1XMG-162026-09-04 23:53:30-22.80837-43.1418370°119km/h6866m7.1m/s-14.6°C61.4%437.3hPa0V00:00:0000:00:0000:00:00
PU1XMG-162026-09-04 23:53:16-22.80949-43.1450978°113km/h6790m9.8m/s-13.9°C57.6%441.6hPa0V00:00:0000:00:0000:00:00
PU1XMG-162026-09-04 23:53:10-22.80997-43.1466569°110km/h6748m7.9m/s-13.6°C54.1%443.9hPa0V00:00:0000:00:0000:00:00
PU1XMG-162026-09-04 23:53:04-22.81047-43.1484370°108km/h6713m8.2m/s-13.3°C52.5%446.0hPa0V00:00:0000:00:0000:00:00
PU1XMG-162026-09-04 23:52:59-22.81082-43.1497680°104km/h6681m8.3m/s-12.9°C51.2%448.2hPa0V00:00:0000:00:0000:00:00
PU1XMG-162026-09-04 23:52:54-22.81115-43.1510176°84km/h6644m8.4m/s-12.6°C50.9%450.2hPa0V00:00:0000:00:0000:00:00
PU1XMG-162026-09-04 23:52:48-22.81164-43.1524767°100km/h6611m6.5m/s-12.2°C49.0%452.3hPa0V00:00:0000:00:0000:00:00
PU1XMG-162026-09-04 23:52:43-22.81206-43.1537077°99km/h6576m6.4m/s-12.0°C46.2%454.3hPa0V00:00:0000:00:0000:00:00
PU1XMG-162026-09-04 23:52:37-22.81233-43.1552082°100km/h6529m7.3m/s-11.6°C44.4%457.0hPa0V00:00:0000:00:0000:00:00
PU1XMG-162026-09-04 23:52:33-22.81270-43.1564773°93km/h6497m6.4m/s-11.4°C43.5%458.8hPa0V00:00:0000:00:0000:00:00
PU1XMG-162026-09-04 23:52:26-22.81295-43.1579575°86km/h6453m7.4m/s-11.3°C40.4%461.2hPa0V00:00:0000:00:0000:00:00
PU1XMG-162026-09-04 23:52:22-22.81329-43.1591680°91km/h6425m5.1m/s-11.0°C39.0%463.2hPa0V00:00:0000:00:0000:00:00
PU1XMG-162026-09-04 23:52:16-22.81347-43.1604987°104km/h6397m5.0m/s-10.9°C35.5%465.0hPa0V00:00:0000:00:0000:00:00
PU1XMG-162026-09-04 23:52:10-22.81355-43.1620289°82km/h6357m8.6m/s-11.8°C14.8%467.4hPa0V00:00:0000:00:0000:00:00
PU1XMG-162026-09-04 23:52:04-22.81354-43.1634696°78km/h6319m7.3m/s-11.8°C10.8%469.6hPa0V00:00:0000:00:0000:00:00
PU1XMG-162026-09-04 23:51:58-22.81361-43.1646285°73km/h6281m4.2m/s-11.6°C8.2%472.2hPa0V00:00:0000:00:0000:00:00
PU1XMG-162026-09-04 23:51:52-22.81352-43.1659697°84km/h6248m7.8m/s-11.4°C9.1%474.4hPa0V00:00:0000:00:0000:00:00
PU1XMG-162026-09-04 23:51:46-22.81351-43.1672787°86km/h6205m8.3m/s-11.3°C10.1%476.7hPa0V00:00:0000:00:0000:00:00
PU1XMG-162026-09-04 23:51:35-22.81337-43.16984100°84km/h6121m7.1m/s-11.7°C20.7%482.1hPa0V00:00:0000:00:0000:00:00
PU1XMG-162026-09-04 23:51:30-22.81320-43.1709295°80km/h6084m6.4m/s-11.6°C21.3%484.3hPa0V00:00:0000:00:0000:00:00
PU1XMG-162026-09-04 23:51:24-22.81315-43.1722991°82km/h6047m6.6m/s-11.4°C24.3%486.8hPa0V00:00:0000:00:0000:00:00
PU1XMG-162026-09-04 23:51:19-22.81312-43.1732597°68km/h6011m7.2m/s-11.3°C30.0%489.0hPa0V00:00:0000:00:0000:00:00
PU1XMG-162026-09-04 23:51:14-22.81308-43.1741281°60km/h5986m6.0m/s-11.1°C31.5%490.7hPa0V00:00:0000:00:0000:00:00
PU1XMG-162026-09-04 23:51:08-22.81309-43.1752496°58km/h5943m8.7m/s-10.8°C27.5%493.3hPa0V00:00:0000:00:0000:00:00
PU1XMG-162026-09-04 23:51:02-22.81315-43.1762092°60km/h5903m8.0m/s-10.4°C23.7%495.9hPa0V00:00:0000:00:0000:00:00
PU1XMG-162026-09-04 23:50:56-22.81314-43.1772484°73km/h5858m7.3m/s-9.9°C22.0%498.8hPa0V00:00:0000:00:0000:00:00
PU1XMG-162026-09-04 23:50:50-22.81342-43.1783382°69km/h5809m9.3m/s-9.6°C24.5%502.0hPa0V00:00:0000:00:0000:00:00
PU1XMG-162026-09-04 23:50:39-22.81334-43.1803181°60km/h5724m12.2m/s-8.7°C20.5%507.5hPa0V00:00:0000:00:0000:00:00
PU1XMG-162026-09-04 23:50:34-22.81343-43.1812081°68km/h5675m11.2m/s-9.3°C39.0%510.9hPa0V00:00:0000:00:0000:00:00
PU1XMG-162026-09-04 23:50:28-22.81354-43.1823485°86km/h5611m11.4m/s-9.0°C34.5%514.7hPa0V00:00:0000:00:0000:00:00
PU1XMG-162026-09-04 23:50:22-22.81361-43.1836794°86km/h5542m10.5m/s-8.2°C32.2%519.1hPa0V00:00:0000:00:0000:00:00
PU1XMG-162026-09-04 23:50:17-22.81364-43.1846680°57km/h5485m12.7m/s-6.6°C18.8%522.9hPa0V00:00:0000:00:0000:00:00
PU1XMG-162026-09-04 23:50:11-22.81384-43.1856381°71km/h5425m10.4m/s-6.2°C20.4%527.1hPa0V00:00:0000:00:0000:00:00
PU1XMG-162026-09-04 23:50:05-22.81404-43.1867179°66km/h5372m6.4m/s-6.7°C29.2%530.8hPa0V00:00:0000:00:0000:00:00
PU1XMG-162026-09-04 23:50:00-22.81401-43.1875994°75km/h5336m6.6m/s-6.2°C27.5%533.3hPa0V00:00:0000:00:0000:00:00
PU1XMG-162026-09-04 23:49:55-22.81417-43.1884675°55km/h5308m4.7m/s-6.0°C25.4%535.4hPa0V00:00:0000:00:0000:00:00
PU1XMG-162026-09-04 23:49:49-22.81432-43.1895079°68km/h5275m7.1m/s-5.5°C23.6%537.7hPa0V00:00:0000:00:0000:00:00
PU1XMG-162026-09-04 23:49:44-22.81447-43.1906486°57km/h5243m7.7m/s-5.9°C27.8%539.7hPa0V00:00:0000:00:0000:00:00
PU1XMG-162026-09-04 23:49:38-22.81447-43.19132100°55km/h5209m4.5m/s-5.4°C26.6%542.2hPa0V00:00:0000:00:0000:00:00
PU1XMG-162026-09-04 23:49:32-22.81444-43.1921291°46km/h5173m6.6m/s-6.2°C44.4%544.6hPa0V00:00:0000:00:0000:00:00
PU1XMG-162026-09-04 23:49:26-22.81451-43.1928196°42km/h5144m5.5m/s-6.1°C46.4%546.6hPa0V00:00:0000:00:0000:00:00
PU1XMG-162026-09-04 23:49:21-22.81453-43.19340101°44km/h5120m4.3m/s-5.9°C45.4%548.1hPa0V00:00:0000:00:0000:00:00
PU1XMG-162026-09-04 23:49:15-22.81440-43.1939665°24km/h5103m6.4m/s-6.6°C68.3%549.2hPa0V00:00:0000:00:0000:00:00
PU1XMG-162026-09-04 23:49:10-22.81452-43.1943993°47km/h5079m5.1m/s-7.1°C82.5%550.9hPa0V00:00:0000:00:0000:00:00
PU1XMG-162026-09-04 23:49:05-22.81440-43.1949696°37km/h5051m6.7m/s-6.4°C0%553.0hPa0V00:00:0000:00:0000:00:00
PU1XMG-162026-09-04 23:48:59-22.81434-43.1956195°40km/h5011m7.3m/s-6.0°C91.6%555.8hPa0V00:00:0000:00:0000:00:00
PU1XMG-162026-09-04 23:48:54-22.81427-43.1962996°40km/h4982m6.3m/s-5.8°C98.4%557.9hPa0V00:00:0000:00:0000:00:00
PU1XMG-162026-09-04 23:48:48-22.81434-43.1968680°49km/h4933m9.1m/s-5.3°C91.8%561.2hPa0V00:00:0000:00:0000:00:00
PU1XMG-162026-09-04 23:48:42-22.81464-43.1976158°46km/h4882m9.7m/s-5.1°C79.7%564.7hPa0V00:00:0000:00:0000:00:00
PU1XMG-162026-09-04 23:48:37-22.81491-43.1982561°46km/h4848m9.3m/s-4.8°C84.1%567.2hPa0V00:00:0000:00:0000:00:00
PU1XMG-162026-09-04 23:48:31-22.81525-43.1987571°33km/h4803m8.9m/s-3.7°C46.0%570.6hPa0V00:00:0000:00:0000:00:00
PU1XMG-162026-09-04 23:48:24-22.81543-43.1993789°27km/h4766m2.8m/s-3.2°C35.4%573.3hPa0V00:00:0000:00:0000:00:00
PU1XMG-162026-09-04 23:48:20-22.81554-43.1999176°53km/h4743m4.0m/s-3.1°C35.7%575.0hPa0V00:00:0000:00:0000:00:00
PU1XMG-162026-09-04 23:48:14-22.81564-43.20058101°33km/h4717m6.8m/s-3.0°C45.7%577.2hPa0V00:00:0000:00:0000:00:00
PU1XMG-162026-09-04 23:48:09-22.81556-43.2010477°31km/h4698m4.3m/s-3.0°C42.2%578.2hPa0V00:00:0000:00:0000:00:00
PU1XMG-162026-09-04 23:48:03-22.81575-43.2016280°29km/h4665m5.9m/s-3.3°C53.9%580.5hPa0V00:00:0000:00:0000:00:00
PU1XMG-162026-09-04 23:47:57-22.81572-43.2020784°35km/h4640m3.8m/s-3.4°C58.2%582.3hPa0V00:00:0000:00:0000:00:00
PU1XMG-162026-09-04 23:47:51-22.81574-43.2025083°33km/h4612m3.5m/s-3.3°C70.0%584.5hPa0V00:00:0000:00:0000:00:00
PU1XMG-162026-09-04 23:47:46-22.81583-43.2029769°46km/h4592m1.9m/s-3.2°C80.0%586.0hPa0V00:00:0000:00:0000:00:00
PU1XMG-162026-09-04 23:47:40-22.81601-43.2035179°40km/h4574m1.9m/s-3.3°C61.8%587.3hPa0V00:00:0000:00:0000:00:00
PU1XMG-162026-09-04 23:47:35-22.81604-43.2041087°35km/h4558m1.4m/s-3.1°C58.3%588.6hPa0V00:00:0000:00:0000:00:00
PU1XMG-162026-09-04 23:47:28-22.81619-43.2045061°37km/h4534m1.1m/s-3.1°C81.5%590.3hPa0V00:00:0000:00:0000:00:00
PU1XMG-162026-09-04 23:47:23-22.81633-43.2049373°40km/h4518m4.4m/s-3.0°C91.6%591.7hPa0V00:00:0000:00:0000:00:00
PU1XMG-162026-09-04 23:47:17-22.81638-43.2056981°44km/h4501m3.4m/s-2.7°C80.6%592.8hPa0V00:00:0000:00:0000:00:00
PU1XMG-162026-09-04 23:47:11-22.81645-43.2062383°40km/h4483m3.3m/s-2.9°C86.1%594.1hPa0V00:00:0000:00:0000:00:00
PU1XMG-162026-09-04 23:47:06-22.81657-43.2067593°31km/h4469m2.0m/s-2.3°C0%595.1hPa0V00:00:0000:00:0000:00:00
PU1XMG-162026-09-04 23:47:01-22.81657-43.2071090°24km/h4445m6.1m/s-1.8°C0%596.9hPa0V00:00:0000:00:0000:00:00
PU1XMG-162026-09-04 23:46:56-22.81666-43.2076586°47km/h4424m4.4m/s-1.6°C0%598.5hPa0V00:00:0000:00:0000:00:00
PU1XMG-162026-09-04 23:46:51-22.81665-43.20811108°29km/h4399m7.2m/s-1.3°C0%600.5hPa0V00:00:0000:00:0000:00:00
PU1XMG-162026-09-04 23:46:46-22.81665-43.20861101°37km/h4361m3.9m/s-1.3°C0%603.2hPa0V00:00:0000:00:0000:00:00
PU1XMG-162026-09-04 23:46:39-22.81667-43.2091375°46km/h4341m4.4m/s-1.5°C0%604.7hPa0V00:00:0000:00:0000:00:00
PU1XMG-162026-09-04 23:46:35-22.81667-43.20967100°44km/h4316m8.4m/s-1.3°C0%606.9hPa0V00:00:0000:00:0000:00:00
PU1XMG-162026-09-04 23:46:29-22.81662-43.2105797°46km/h4280m8.5m/s-1.5°C99.6%609.3hPa0V00:00:0000:00:0000:00:00
PU1XMG-162026-09-04 23:46:22-22.81647-43.2111894°49km/h4241m7.1m/s-1.0°C98.3%612.4hPa0V00:00:0000:00:0000:00:00
PU1XMG-162026-09-04 23:46:17-22.81648-43.2117797°46km/h4205m8.2m/s-0.8°C94.4%615.0hPa0V00:00:0000:00:0000:00:00
PU1XMG-162026-09-04 23:46:12-22.81620-43.21236130°42km/h4182m3.3m/s-0.7°C99.1%616.8hPa0V00:00:0000:00:0000:00:00
PU1XMG-162026-09-04 23:46:07-22.81590-43.21292112°46km/h4156m6.2m/s-0.2°C89.6%618.8hPa0V00:00:0000:00:0000:00:00
PU1XMG-162026-09-04 23:46:01-22.81568-43.2136291°46km/h4135m6.0m/s0.8°C66.7%620.8hPa0V00:00:0000:00:0000:00:00
PU1XMG-162026-09-04 23:45:56-22.81555-43.21431115°60km/h4116m5.7m/s0.3°C83.7%622.1hPa0V00:00:0000:00:0000:00:00
PU1XMG-162026-09-04 23:45:51-22.81536-43.2148499°38km/h4090m5.4m/s0.8°C76.3%623.9hPa0V00:00:0000:00:0000:00:00
PU1XMG-162026-09-04 23:45:46-22.81530-43.21551107°42km/h4069m4.6m/s0.5°C88.0%625.4hPa0V00:00:0000:00:0000:00:00
PU1XMG-162026-09-04 23:45:41-22.81511-43.21606123°35km/h4040m5.7m/s1.6°C67.0%627.6hPa0V00:00:0000:00:0000:00:00
PU1XMG-162026-09-04 23:45:35-22.81492-43.2166793°46km/h4021m4.3m/s1.8°C67.9%629.2hPa0V00:00:0000:00:0000:00:00
PU1XMG-162026-09-04 23:45:29-22.81491-43.2174795°37km/h4001m3.8m/s1.5°C81.0%630.8hPa0V00:00:0000:00:0000:00:00
PU1XMG-162026-09-04 23:45:24-22.81472-43.21813100°47km/h3976m6.1m/s2.1°C69.3%632.8hPa0V00:00:0000:00:0000:00:00
PU1XMG-162026-09-04 23:45:18-22.81463-43.2186289°35km/h3953m3.8m/s2.0°C75.1%634.6hPa0V00:00:0000:00:0000:00:00
PU1XMG-162026-09-04 23:45:12-22.81453-43.21911105°40km/h3928m5.6m/s2.1°C77.1%636.4hPa0V00:00:0000:00:0000:00:00
PU1XMG-162026-09-04 23:45:09-22.81446-43.21969107°42km/h3910m7.1m/s2.6°C67.7%637.9hPa0V00:00:0000:00:0000:00:00
PU1XMG-162026-09-04 23:45:02-22.81442-43.22034103°49km/h3883m4.5m/s2.9°C66.7%639.8hPa0V00:00:0000:00:0000:00:00
PU1XMG-162026-09-04 23:44:55-22.81429-43.2211483°46km/h3870m-0.1m/s2.8°C69.4%641.2hPa0V00:00:0000:00:0000:00:00
PU1XMG-162026-09-04 23:44:49-22.81428-43.2216989°33km/h3855m0.8m/s2.9°C70.2%642.3hPa0V00:00:0000:00:0000:00:00
PU1XMG-162026-09-04 23:44:44-22.81429-43.2222798°38km/h3841m1.3m/s3.1°C64.9%643.5hPa0V00:00:0000:00:0000:00:00
PU1XMG-162026-09-04 23:44:38-22.81420-43.2229984°40km/h3824m5.1m/s2.9°C69.6%644.8hPa0V00:00:0000:00:0000:00:00
PU1XMG-162026-09-04 23:44:33-22.81424-43.2235996°46km/h3814m3.1m/s2.8°C72.4%645.6hPa0V00:00:0000:00:0000:00:00
PU1XMG-162026-09-04 23:44:27-22.81424-43.2242984°44km/h3794m4.8m/s2.9°C69.9%647.5hPa0V00:00:0000:00:0000:00:00
PU1XMG-162026-09-04 23:44:21-22.81422-43.22499104°33km/h3773m6.5m/s2.7°C79.4%649.0hPa0V00:00:0000:00:0000:00:00
PU1XMG-162026-09-04 23:44:16-22.81421-43.2254782°47km/h3755m2.9m/s2.6°C77.8%650.4hPa0V00:00:0000:00:0000:00:00
PU1XMG-162026-09-04 23:44:10-22.81415-43.2261878°29km/h3740m4.2m/s2.7°C79.3%651.4hPa0V00:00:0000:00:0000:00:00
PU1XMG-162026-09-04 23:44:05-22.81430-43.2267581°44km/h3727m3.3m/s2.7°C80.9%652.5hPa0V00:00:0000:00:0000:00:00
PU1XMG-162026-09-04 23:43:59-22.81434-43.22744100°33km/h3711m2.6m/s2.8°C83.3%654.0hPa0V00:00:0000:00:0000:00:00
PU1XMG-162026-09-04 23:43:54-22.81438-43.2279693°42km/h3699m2.8m/s4.0°C0%654.9hPa0V00:00:0000:00:0000:00:00
PU1XMG-162026-09-04 23:43:48-22.81447-43.2286286°47km/h3673m7.4m/s4.0°C0%656.9hPa0V00:00:0000:00:0000:00:00
PU1XMG-162026-09-04 23:43:43-22.81442-43.2290890°20km/h3643m3.8m/s3.8°C0%658.9hPa0V00:00:0000:00:0000:00:00
PU1XMG-162026-09-04 23:43:38-22.81436-43.22961103°35km/h3610m2.6m/s4.0°C0%661.9hPa0V00:00:0000:00:0000:00:00
PU1XMG-162026-09-04 23:43:32-22.81428-43.2301993°38km/h3584m4.4m/s4.0°C94.9%663.9hPa0V00:00:0000:00:0000:00:00
PU1XMG-162026-09-04 23:43:21-22.81435-43.23187104°55km/h3548m3.9m/s4.2°C87.3%666.9hPa0V00:00:0000:00:0000:00:00
PU1XMG-162026-09-04 23:43:15-22.81434-43.2325282°55km/h3529m5.5m/s4.6°C0%668.4hPa0V00:00:0000:00:0000:00:00
PU1XMG-162026-09-04 23:43:10-22.81440-43.2332287°37km/h3503m2.1m/s4.3°C0%670.3hPa0V00:00:0000:00:0000:00:00
PU1XMG-162026-09-04 23:43:05-22.81441-43.23378107°38km/h3467m10.4m/s4.8°C97.3%673.0hPa0V00:00:0000:00:0000:00:00
PU1XMG-162026-09-04 23:42:59-22.81414-43.23441123°40km/h3417m8.8m/s7.2°C0%677.5hPa0V00:00:0000:00:0000:00:00
PU1XMG-162026-09-04 23:42:54-22.81384-43.23487136°42km/h3388m8.0m/s7.3°C0%680.0hPa0V00:00:0000:00:0000:00:00
PU1XMG-162026-09-04 23:42:49-22.81362-43.23520142°33km/h3350m8.7m/s7.5°C0%683.1hPa0V00:00:0000:00:0000:00:00
PU1XMG-162026-09-04 23:42:44-22.81317-43.23562146°53km/h3306m8.7m/s7.7°C0%686.9hPa0V00:00:0000:00:0000:00:00
PU1XMG-162026-09-04 23:42:38-22.81278-43.23606151°18km/h3244m9.7m/s7.6°C0%691.6hPa0V00:00:0000:00:0000:00:00
PU1XMG-162026-09-04 23:42:33-22.81238-43.23632138°60km/h3191m10.6m/s7.8°C0%696.0hPa0V00:00:0000:00:0000:00:00
PU1XMG-162026-09-04 23:42:28-22.81196-43.23668149°20km/h3142m9.7m/s7.7°C0%700.3hPa0V00:00:0000:00:0000:00:00
PU1XMG-162026-09-04 23:42:22-22.81164-43.23704120°42km/h3083m9.1m/s7.7°C0%705.4hPa0V00:00:0000:00:0000:00:00
PU1XMG-162026-09-04 23:42:16-22.81125-43.23761116°37km/h3028m9.5m/s7.9°C98.7%710.1hPa0V00:00:0000:00:0000:00:00
PU1XMG-162026-09-04 23:42:10-22.81087-43.23812152°33km/h2985m9.8m/s8.2°C98.6%714.1hPa0V00:00:0000:00:0000:00:00
PU1XMG-162026-09-04 23:42:04-22.81039-43.23858140°38km/h2933m7.7m/s8.6°C97.1%718.6hPa0V00:00:0000:00:0000:00:00
PU1XMG-162026-09-04 23:41:59-22.81012-43.23915104°46km/h2891m9.1m/s9.3°C99.8%722.1hPa0V00:00:0000:00:0000:00:00
PU1XMG-162026-09-04 23:41:54-22.80985-43.23957143°26km/h2852m5.1m/s9.8°C0%725.5hPa0V00:00:0000:00:0000:00:00
PU1XMG-162026-09-04 23:41:48-22.80947-43.23997106°31km/h2815m6.1m/s9.5°C0%728.6hPa0V00:00:0000:00:0000:00:00
PU1XMG-162026-09-04 23:41:37-22.80899-43.24068120°26km/h2745m10.1m/s10.2°C0%734.8hPa0V00:00:0000:00:0000:00:00
PU1XMG-162026-09-04 23:41:31-22.80880-43.24110129°29km/h2700m8.2m/s10.8°C0%738.6hPa0V00:00:0000:00:0000:00:00
PU1XMG-162026-09-04 23:41:26-22.80868-43.24140122°31km/h2668m6.2m/s10.9°C0%741.6hPa0V00:00:0000:00:0000:00:00
PU1XMG-162026-09-04 23:41:21-22.80853-43.24173111°33km/h2637m6.0m/s10.5°C99.5%744.6hPa0V00:00:0000:00:0000:00:00
PU1XMG-162026-09-04 23:41:15-22.80835-43.24194141°16km/h2598m7.6m/s10.8°C90.0%748.1hPa0V00:00:0000:00:0000:00:00
PU1XMG-162026-09-04 23:41:10-22.80820-43.24213151°15km/h2566m6.4m/s11.2°C84.5%750.9hPa0V00:00:0000:00:0000:00:00
PU1XMG-162026-09-04 23:41:06-22.80804-43.2423982°20km/h2535m6.4m/s11.5°C80.0%753.7hPa0V00:00:0000:00:0000:00:00
PU1XMG-162026-09-04 23:40:59-22.80795-43.24262113°26km/h2501m7.9m/s11.9°C78.1%756.7hPa0V00:00:0000:00:0000:00:00
PU1XMG-162026-09-04 23:40:53-22.80786-43.24292118°26km/h2461m6.3m/s12.2°C75.8%760.3hPa0V00:00:0000:00:0000:00:00
PU1XMG-162026-09-04 23:40:47-22.80774-43.24310120°16km/h2420m5.8m/s12.5°C74.0%764.0hPa0V00:00:0000:00:0000:00:00
PU1XMG-162026-09-04 23:40:42-22.80766-43.24327111°18km/h2389m7.8m/s12.8°C71.8%766.9hPa0V00:00:0000:00:0000:00:00
PU1XMG-162026-09-04 23:40:36-22.80754-43.24348143°20km/h2350m7.9m/s13.1°C66.8%770.4hPa0V00:00:0000:00:0000:00:00
PU1XMG-162026-09-04 23:40:31-22.80751-43.2435894°15km/h2321m7.4m/s13.4°C65.0%773.1hPa0V00:00:0000:00:0000:00:00
PU1XMG-162026-09-04 23:40:25-22.80745-43.2439289°11km/h2287m7.3m/s13.7°C63.8%776.4hPa0V00:00:0000:00:0000:00:00
PU1XMG-162026-09-04 23:40:20-22.80740-43.24392116°13km/h2253m7.5m/s13.9°C63.3%779.3hPa0V00:00:0000:00:0000:00:00
PU1XMG-162026-09-04 23:40:15-22.80727-43.24423108°24km/h2224m7.5m/s14.0°C66.0%782.0hPa0V00:00:0000:00:0000:00:00
PU1XMG-162026-09-04 23:40:10-22.80732-43.2443029°7km/h2189m7.4m/s14.2°C67.7%785.0hPa0V00:00:0000:00:0000:00:00
PU1XMG-162026-09-04 23:40:04-22.80742-43.24446250°4km/h2149m6.6m/s14.6°C67.6%788.8hPa0V00:00:0000:00:0000:00:00
PU1XMG-162026-09-04 23:39:59-22.80742-43.2445464°16km/h2119m7.8m/s14.8°C69.3%791.6hPa0V00:00:0000:00:0000:00:00
PU1XMG-162026-09-04 23:39:53-22.80730-43.24471111°13km/h2086m8.5m/s15.1°C70.0%794.9hPa0V00:00:0000:00:0000:00:00
PU1XMG-162026-09-04 23:39:48-22.80724-43.24482205°15km/h2054m10.0m/s15.3°C72.5%797.8hPa0V00:00:0000:00:0000:00:00
PU1XMG-162026-09-04 23:39:42-22.80721-43.24495140°7km/h2009m8.1m/s15.4°C78.6%801.8hPa0V00:00:0000:00:0000:00:00
PU1XMG-162026-09-04 23:39:37-22.80714-43.24499322°7km/h1983m3.4m/s15.5°C80.9%804.6hPa0V00:00:0000:00:0000:00:00
PU1XMG-162026-09-04 23:39:31-22.80707-43.2450374°9km/h1942m6.3m/s15.7°C82.0%808.2hPa0V00:00:0000:00:0000:00:00
PU1XMG-162026-09-04 23:39:26-22.80709-43.2451063°13km/h1911m7.4m/s15.8°C83.6%810.9hPa0V00:00:0000:00:0000:00:00
PU1XMG-162026-09-04 23:39:20-22.80709-43.24512132°11km/h1871m6.7m/s15.8°C82.7%815.0hPa0V00:00:0000:00:0000:00:00
PU1XMG-162026-09-04 23:39:15-22.80699-43.24520121°9km/h1840m5.5m/s16.0°C78.7%818.0hPa0V00:00:0000:00:0000:00:00
PU1XMG-162026-09-04 23:39:09-22.80687-43.24507252°22km/h1807m5.1m/s16.1°C79.1%820.9hPa0V00:00:0000:00:0000:00:00
PU1XMG-162026-09-04 23:39:04-22.80669-43.24502198°18km/h1768m4.7m/s16.3°C83.2%824.6hPa0V00:00:0000:00:0000:00:00
PU1XMG-162026-09-04 23:38:57-22.80655-43.24492240°15km/h1732m8.0m/s16.4°C87.5%828.3hPa0V00:00:0000:00:0000:00:00
PU1XMG-162026-09-04 23:38:51-22.80647-43.24486358°9km/h1693m6.9m/s16.5°C82.7%831.8hPa0V00:00:0000:00:0000:00:00
PU1XMG-162026-09-04 23:38:45-22.80648-43.24495176°7km/h1663m7.5m/s16.7°C77.8%834.9hPa0V00:00:0000:00:0000:00:00
PU1XMG-162026-09-04 23:38:39-22.80647-43.24495122°4km/h1623m6.8m/s17.0°C78.0%838.9hPa0V00:00:0000:00:0000:00:00
PU1XMG-162026-09-04 23:38:33-22.80644-43.2450243°5km/h1583m6.4m/s17.4°C62.9%842.6hPa0V00:00:0000:00:0000:00:00
PU1XMG-162026-09-04 23:38:28-22.80647-43.2450236°11km/h1554m5.4m/s17.9°C51.9%845.6hPa0V00:00:0000:00:0000:00:00
PU1XMG-162026-09-04 23:38:23-22.80660-43.24498168°2km/h1525m4.9m/s18.2°C49.7%848.6hPa0V00:00:0000:00:0000:00:00
PU1XMG-162026-09-04 23:38:17-22.80667-43.2449722km/h1490m5.2m/s18.5°C47.6%851.9hPa0V00:00:0000:00:0000:00:00
PU1XMG-162026-09-04 23:38:12-22.80689-43.24490357°11km/h1462m6.2m/s18.8°C44.4%854.5hPa0V00:00:0000:00:0000:00:00
PU1XMG-162026-09-04 23:38:07-22.80694-43.24491320°11km/h1431m6.6m/s19.1°C42.7%857.4hPa0V00:00:0000:00:0000:00:00
PU1XMG-162026-09-04 23:38:02-22.80710-43.24498102°16km/h1405m3.8m/s19.2°C42.2%860.3hPa0V00:00:0000:00:0000:00:00
PU1XMG-162026-09-04 23:37:58-22.80719-43.24498339°24km/h1376m7.9m/s19.4°C42.7%863.1hPa0V00:00:0000:00:0000:00:00
PU1XMG-162026-09-04 23:37:51-22.80720-43.24498120°9km/h1343m5.6m/s19.7°C42.8%866.8hPa0V00:00:0000:00:0000:00:00
PU1XMG-162026-09-04 23:37:46-22.80721-43.2451531°9km/h1316m5.5m/s19.9°C42.9%869.3hPa0V00:00:0000:00:0000:00:00
PU1XMG-162026-09-04 23:37:41-22.80744-43.24506329°13km/h1287m5.2m/s20.1°C42.7%872.1hPa0V00:00:0000:00:0000:00:00
PU1XMG-162026-09-04 23:37:36-22.80740-43.24505152°5km/h1256m4.3m/s20.1°C43.8%875.2hPa0V00:00:0000:00:0000:00:00
PU1XMG-162026-09-04 23:37:31-22.80745-43.24497339°18km/h1231m4.7m/s20.2°C44.2%877.9hPa0V00:00:0000:00:0000:00:00
PU1XMG-162026-09-04 23:37:25-22.80780-43.2449230°26km/h1202m6.1m/s20.4°C44.5%880.9hPa0V00:00:0000:00:0000:00:00
PU1XMG-162026-09-04 23:37:21-22.80784-43.24504173°2km/h1173m7.0m/s20.4°C46.1%883.9hPa0V00:00:0000:00:0000:00:00
PU1XMG-162026-09-04 23:37:15-22.80789-43.2450886°11km/h1141m6.6m/s20.4°C47.2%887.1hPa0V00:00:0000:00:0000:00:00
PU1XMG-162026-09-04 23:37:09-22.80798-43.2452764°16km/h1107m5.5m/s20.8°C46.4%890.9hPa0V00:00:0000:00:0000:00:00
PU1XMG-162026-09-04 23:37:04-22.80804-43.2453118°9km/h1074m7.7m/s21.0°C45.8%894.1hPa0V00:00:0000:00:0000:00:00
PU1XMG-162026-09-04 23:36:59-22.80821-43.2453729°4km/h1045m6.8m/s21.3°C45.5%896.8hPa0V00:00:0000:00:0000:00:00
PU1XMG-162026-09-04 23:36:54-22.80828-43.2455740°18km/h1014m3.6m/s21.5°C45.1%900.0hPa0V00:00:0000:00:0000:00:00
PU1XMG-162026-09-04 23:36:49-22.80837-43.2457281°13km/h988m7.8m/s21.7°C44.6%903.1hPa0V00:00:0000:00:0000:00:00
PU1XMG-162026-09-04 23:36:43-22.80851-43.2458418km/h944m7.7m/s22.1°C44.3%907.2hPa0V00:00:0000:00:0000:00:00
PU1XMG-162026-09-04 23:36:38-22.80860-43.2458669°18km/h913m5.8m/s22.2°C45.5%910.5hPa0V00:00:0000:00:0000:00:00
PU1XMG-162026-09-04 23:36:32-22.80876-43.2460646°24km/h876m7.1m/s0°C0%914.3hPa0V00:00:0000:00:0000:00:00
PU1XMG-162026-09-04 23:36:26-22.80901-43.2463820°15km/h843m5.4m/s0°C0%918.1hPa0V00:00:0000:00:0000:00:00
PU1XMG-162026-09-04 23:36:21-22.80912-43.2463321°18km/h814m5.4m/s0°C0%920.9hPa0V00:00:0000:00:0000:00:00
PU1XMG-162026-09-04 23:36:15-22.80919-43.24662123°5km/h780m4.8m/s0°C0%0hPa0V00:00:0000:00:0000:00:00
PU1XMG-162026-09-04 23:36:10-22.80931-43.24657354°16km/h753m5.5m/s0°C0%0hPa0V00:00:0000:00:0000:00:00
PU1XMG-162026-09-04 23:36:04-22.80944-43.2467245°9km/h721m4.3m/s0°C0%0hPa0V00:00:0000:00:0000:00:00
PU1XMG-162026-09-04 23:35:59-22.80942-43.2468160°5km/h691m5.8m/s0°C0%0hPa0V00:00:0000:00:0000:00:00
PU1XMG-162026-09-04 23:35:53-22.80933-43.24696131°15km/h655m7.4m/s0°C0%0hPa0V00:00:0000:00:0000:00:00
PU1XMG-162026-09-04 23:35:47-22.80932-43.24708104°7km/h617m7.5m/s0°C0%0hPa0V00:00:0000:00:0000:00:00
PU1XMG-162026-09-04 23:35:40-22.80929-43.24723125°18km/h573m8.6m/s0°C0%0hPa0V00:00:0000:00:0000:00:00
PU1XMG-162026-09-04 23:35:30-22.80928-43.2476353°18km/h523m5.4m/s0°C0%0hPa0V00:00:0000:00:0000:00:00
PU1XMG-162026-09-04 23:35:22-22.80933-43.2478594°5km/h479m6.4m/s0°C0%0hPa0V00:00:0000:00:0000:00:00
PU1XMG-162026-09-04 23:35:11-22.80932-43.24814130°16km/h419m3.4m/s0°C0%0hPa0V00:00:0000:00:0000:00:00
PU1XMG-162026-09-04 23:35:06-22.80934-43.2483790°22km/h390m5.5m/s0°C0%0hPa0V00:00:0000:00:0000:00:00
PU1XMG-162026-09-04 23:34:59-22.80936-43.2486543°15km/h350m8.9m/s0°C0%0hPa0V00:00:0000:00:0000:00:00
PU1XMG-162026-09-04 23:34:53-22.80951-43.2487172°9km/h319m5.6m/s0°C0%0hPa0V00:00:0000:00:0000:00:00


GPX KML Map

© wettersonde.net (DO2JMG) - 2026  -  -